Time,TemperatureF,DewpointF,PressureIn,WindDirection,WindDirectionDegrees,WindSpeedMPH,WindSpeedGustMPH,Humidity,HourlyPrecipIn,Conditions,Clouds,dailyrainin,SoftwareType,DateUTC
2013-08-17 00:00:00,58.3,49.3,30.08,SE,125,0.0,0.0,72,0.00,,FEW100,0.00,VWS V14.01,2013-08-17 05:00:00,
2013-08-17 00:01:00,58.3,49.3,30.08,SE,125,0.0,0.0,72,0.00,,FEW100,0.00,VWS V14.01,2013-08-17 05:01:00,
2013-08-17 00:03:00,58.1,49.1,30.08,SE,125,0.0,0.0,72,0.00,,FEW100,0.00,VWS V14.01,2013-08-17 05:03:00,
2013-08-17 00:04:00,58.1,49.9,30.08,SE,125,0.0,0.0,74,0.00,,FEW100,0.00,VWS V14.01,2013-08-17 05:04:00,
2013-08-17 00:06:00,58.1,49.9,30.08,SE,125,0.0,0.0,74,0.00,,FEW100,0.00,VWS V14.01,2013-08-17 05:06:00,
2013-08-17 00:08:00,58.1,49.9,30.08,SE,125,0.0,0.0,74,0.00,,FEW100,0.00,VWS V14.01,2013-08-17 05:08:00,
2013-08-17 00:10:00,58.1,49.9,30.08,SE,125,0.0,0.0,74,0.00,,FEW100,0.00,VWS V14.01,2013-08-17 05:10:00,
2013-08-17 00:11:00,58.1,49.9,30.08,SE,125,0.0,0.0,74,0.00,,FEW100,0.00,VWS V14.01,2013-08-17 05:11:00,
2013-08-17 00:12:00,57.9,49.7,30.08,SE,125,0.0,0.0,74,0.00,,FEW100,0.00,VWS V14.01,2013-08-17 05:12:00,
2013-08-17 00:14:00,57.9,49.7,30.08,SE,125,0.0,0.0,74,0.00,,FEW100,0.00,VWS V14.01,2013-08-17 05:14:00,
2013-08-17 00:16:00,57.9,50.4,30.08,SE,125,0.0,0.0,76,0.00,,FEW100,0.00,VWS V14.01,2013-08-17 05:16:00,
2013-08-17 00:18:00,57.9,50.4,30.08,SE,125,0.0,0.0,76,0.00,,FEW100,0.00,VWS V14.01,2013-08-17 05:18:00,
2013-08-17 00:19:00,57.9,50.4,30.08,SE,125,0.0,0.0,76,0.00,,FEW100,0.00,VWS V14.01,2013-08-17 05:19:00,
2013-08-17 00:21:00,57.9,50.4,30.08,SE,125,0.0,0.0,76,0.00,,FEW100,0.00,VWS V14.01,2013-08-17 05:21:00,
2013-08-17 00:22:00,57.7,50.2,30.08,SE,125,0.0,0.0,76,0.00,,FEW100,0.00,VWS V14.01,2013-08-17 05:22:00,
2013-08-17 00:23:00,57.7,50.2,30.08,SE,125,0.0,0.0,76,0.00,,FEW100,0.00,VWS V14.01,2013-08-17 05:23:00,
2013-08-17 00:25:00,57.6,50.1,30.08,SE,125,0.0,0.0,76,0.00,,FEW100,0.00,VWS V14.01,2013-08-17 05:25:00,
2013-08-17 00:26:00,57.6,50.1,30.08,SE,125,0.0,0.0,76,0.00,,FEW100,0.00,VWS V14.01,2013-08-17 05:26:00,
2013-08-17 00:27:00,57.6,50.1,30.11,SE,125,0.0,0.0,76,0.00,,FEW100,0.00,VWS V14.01,2013-08-17 05:27:00,
2013-08-17 00:28:00,57.6,50.1,30.11,SE,125,0.0,0.0,76,0.00,,FEW100,0.00,VWS V14.01,2013-08-17 05:28:00,
2013-08-17 00:30:00,57.6,50.1,30.11,SE,125,0.0,0.0,76,0.00,,FEW100,0.00,VWS V14.01,2013-08-17 05:30:00,
2013-08-17 00:31:00,57.6,50.1,30.11,SE,125,0.0,0.0,76,0.00,,FEW100,0.00,VWS V14.01,2013-08-17 05:31:00,
2013-08-17 00:33:00,57.6,50.1,30.11,SE,125,0.0,0.0,76,0.00,,FEW100,0.00,VWS V14.01,2013-08-17 05:33:00,
2013-08-17 00:36:00,57.4,49.9,30.11,SE,125,0.0,0.0,76,0.00,,FEW100,0.00,VWS V14.01,2013-08-17 05:36:00,
2013-08-17 00:38:00,57.4,50.6,30.11,SE,125,0.0,0.0,78,0.00,,FEW100,0.00,VWS V14.01,2013-08-17 05:38:00,
2013-08-17 00:41:00,57.4,50.6,30.11,SE,125,0.0,0.0,78,0.00,,FEW100,0.00,VWS V14.01,2013-08-17 05:41:00,
2013-08-17 00:43:00,57.4,49.9,30.11,SE,125,0.0,0.0,76,0.00,,FEW100,0.00,VWS V14.01,2013-08-17 05:43:00,
2013-08-17 00:45:00,57.2,49.7,30.11,SE,125,0.0,0.0,76,0.00,,FEW100,0.00,VWS V14.01,2013-08-17 05:45:00,
2013-08-17 00:46:00,57.2,49.7,30.11,SE,125,0.0,0.0,76,0.00,,FEW100,0.00,VWS V14.01,2013-08-17 05:46:00,
2013-08-17 00:47:00,57.0,50.2,30.11,SE,125,0.0,0.0,78,0.00,,FEW100,0.00,VWS V14.01,2013-08-17 05:47:00,
2013-08-17 00:48:00,56.8,50.1,30.11,SE,125,0.0,0.0,78,0.00,,FEW100,0.00,VWS V14.01,2013-08-17 05:48:00,
2013-08-17 00:49:00,56.8,50.1,30.11,SE,125,0.0,0.0,78,0.00,,FEW100,0.00,VWS V14.01,2013-08-17 05:49:00,
2013-08-17 00:51:00,56.7,49.2,30.11,SE,125,0.0,0.0,76,0.00,,FEW100,0.00,VWS V14.01,2013-08-17 05:51:00,
2013-08-17 00:52:00,56.7,49.2,30.11,SE,125,0.0,0.0,76,0.00,,FEW100,0.00,VWS V14.01,2013-08-17 05:52:00,
2013-08-17 00:54:00,56.5,49.7,30.11,SE,125,0.0,0.0,78,0.00,,FEW100,0.00,VWS V14.01,2013-08-17 05:54:00,
2013-08-17 00:55:00,56.5,49.7,30.11,SE,125,0.0,0.0,78,0.00,,FEW100,0.00,VWS V14.01,2013-08-17 05:55:00,
2013-08-17 00:56:00,56.7,50.6,30.11,SE,125,0.0,0.0,80,0.00,,FEW100,0.00,VWS V14.01,2013-08-17 05:56:00,
2013-08-17 00:57:00,56.7,50.6,30.11,SE,125,0.0,0.0,80,0.00,,FEW100,0.00,VWS V14.01,2013-08-17 05:57:00,
2013-08-17 01:00:00,57.4,52.6,30.11,SE,125,0.0,0.0,84,0.00,,FEW100,0.00,VWS V14.01,2013-08-17 06:00:00,
2013-08-17 01:01:00,57.6,53.4,30.11,SE,125,0.0,0.0,86,0.00,,FEW100,0.00,VWS V14.01,2013-08-17 06:01:00,
2013-08-17 01:02:00,57.7,53.6,30.11,SE,125,0.0,0.0,86,0.00,,FEW100,0.00,VWS V14.01,2013-08-17 06:02:00,
2013-08-17 01:03:00,57.9,54.4,30.11,SE,125,0.0,0.0,88,0.00,,FEW100,0.00,VWS V14.01,2013-08-17 06:03:00,
2013-08-17 01:05:00,58.1,54.6,30.11,SE,125,0.0,0.0,88,0.00,,FEW100,0.00,VWS V14.01,2013-08-17 06:05:00,
2013-08-17 01:06:00,58.5,55.5,30.11,SE,125,0.0,0.0,90,0.00,,FEW100,0.00,VWS V14.01,2013-08-17 06:06:00,
2013-08-17 01:07:00,58.5,55.5,30.11,SE,125,0.0,0.0,90,0.00,,FEW100,0.00,VWS V14.01,2013-08-17 06:07:00,
2013-08-17 01:08:00,58.5,55.5,30.11,SE,125,0.0,0.0,90,0.00,,FEW100,0.00,VWS V14.01,2013-08-17 06:08:00,
2013-08-17 01:12:00,58.6,55.7,30.08,SE,125,0.0,0.0,90,0.00,,FEW100,0.00,VWS V14.01,2013-08-17 06:12:00,
2013-08-17 01:13:00,58.6,55.7,30.08,SE,125,0.0,0.0,90,0.00,,FEW100,0.00,VWS V14.01,2013-08-17 06:13:00,
2013-08-17 01:14:00,58.6,55.7,30.08,SE,125,0.0,0.0,90,0.00,,FEW100,0.00,VWS V14.01,2013-08-17 06:14:00,
2013-08-17 01:15:00,58.5,55.5,30.08,SE,125,0.0,0.0,90,0.00,,FEW100,0.00,VWS V14.01,2013-08-17 06:15:00,
2013-08-17 01:17:00,58.3,54.8,30.08,SE,125,0.0,0.0,88,0.00,,FEW100,0.00,VWS V14.01,2013-08-17 06:17:00,
2013-08-17 01:18:00,58.3,54.8,30.08,SE,125,0.0,0.0,88,0.00,,FEW100,0.00,VWS V14.01,2013-08-17 06:18:00,
2013-08-17 01:19:00,58.1,53.9,30.08,SE,125,0.0,0.0,86,0.00,,FEW100,0.00,VWS V14.01,2013-08-17 06:19:00,
2013-08-17 01:20:00,58.1,53.9,30.08,SE,125,0.0,0.0,86,0.00,,FEW100,0.00,VWS V14.01,2013-08-17 06:20:00,
2013-08-17 01:23:00,57.7,53.6,30.08,SE,125,0.0,0.0,86,0.00,,FEW100,0.00,VWS V14.01,2013-08-17 06:23:00,
2013-08-17 01:25:00,57.6,53.4,30.08,SE,125,0.0,0.0,86,0.00,,FEW100,0.00,VWS V14.01,2013-08-17 06:25:00,
2013-08-17 01:26:00,57.6,53.4,30.08,SE,125,0.0,0.0,86,0.00,,FEW100,0.00,VWS V14.01,2013-08-17 06:26:00,
2013-08-17 01:28:00,57.6,53.4,30.11,SE,125,0.0,0.0,86,0.00,,FEW100,0.00,VWS V14.01,2013-08-17 06:28:00,
2013-08-17 01:29:00,57.6,53.4,30.11,SE,125,0.0,0.0,86,0.00,,FEW100,0.00,VWS V14.01,2013-08-17 06:29:00,
2013-08-17 01:31:00,57.4,52.6,30.11,SE,125,0.0,0.0,84,0.00,,FEW100,0.00,VWS V14.01,2013-08-17 06:31:00,
2013-08-17 01:33:00,57.4,52.6,30.11,SE,125,0.0,0.0,84,0.00,,FEW100,0.00,VWS V14.01,2013-08-17 06:33:00,
2013-08-17 01:34:00,57.4,53.2,30.11,SE,125,0.0,0.0,86,0.00,,FEW100,0.00,VWS V14.01,2013-08-17 06:34:00,
2013-08-17 01:36:00,57.4,53.2,30.11,SE,125,0.0,0.0,86,0.00,,FEW100,0.00,VWS V14.01,2013-08-17 06:36:00,
2013-08-17 01:38:00,57.4,52.6,30.11,SE,125,0.0,0.0,84,0.00,,FEW100,0.00,VWS V14.01,2013-08-17 06:38:00,
2013-08-17 01:39:00,57.4,52.6,30.11,SE,125,0.0,0.0,84,0.00,,FEW100,0.00,VWS V14.01,2013-08-17 06:39:00,
2013-08-17 01:40:00,57.4,52.6,30.11,SE,125,0.0,0.0,84,0.00,,FEW100,0.00,VWS V14.01,2013-08-17 06:40:00,
2013-08-17 01:41:00,57.4,52.6,30.11,SE,125,0.0,0.0,84,0.00,,FEW100,0.00,VWS V14.01,2013-08-17 06:41:00,
2013-08-17 01:43:00,57.2,52.4,30.11,SE,125,0.0,0.0,84,0.00,,FEW100,0.00,VWS V14.01,2013-08-17 06:43:00,
2013-08-17 01:44:00,57.2,52.4,30.11,SE,125,0.0,0.0,84,0.00,,FEW100,0.00,VWS V14.01,2013-08-17 06:44:00,
2013-08-17 01:45:00,57.2,52.4,30.11,SE,125,0.0,0.0,84,0.00,,FEW100,0.00,VWS V14.01,2013-08-17 06:45:00,
2013-08-17 01:46:00,57.2,52.4,30.11,SE,125,0.0,0.0,84,0.00,,FEW100,0.00,VWS V14.01,2013-08-17 06:46:00,
2013-08-17 01:49:00,57.6,54.0,30.11,SE,125,0.0,0.0,88,0.00,,FEW100,0.00,VWS V14.01,2013-08-17 06:49:00,
2013-08-17 01:51:00,57.6,54.0,30.11,SE,125,0.0,0.0,88,0.00,,FEW100,0.00,VWS V14.01,2013-08-17 06:51:00,
2013-08-17 01:52:00,57.6,53.4,30.11,SE,125,0.0,0.0,86,0.00,,FEW100,0.00,VWS V14.01,2013-08-17 06:52:00,
2013-08-17 01:53:00,57.6,53.4,30.11,SE,125,0.0,0.0,86,0.00,,FEW100,0.00,VWS V14.01,2013-08-17 06:53:00,
2013-08-17 01:55:00,57.4,52.6,30.11,SE,125,0.0,0.0,84,0.00,,FEW100,0.00,VWS V14.01,2013-08-17 06:55:00,
2013-08-17 01:56:00,57.4,52.6,30.11,SE,125,0.0,0.0,84,0.00,,FEW100,0.00,VWS V14.01,2013-08-17 06:56:00,
2013-08-17 01:58:00,57.2,52.4,30.08,SE,125,0.0,0.0,84,0.00,,FEW100,0.00,VWS V14.01,2013-08-17 06:58:00,
2013-08-17 02:00:00,57.2,53.1,30.08,SE,125,0.0,0.0,86,0.00,,FEW100,0.00,VWS V14.01,2013-08-17 07:00:00,
2013-08-17 02:02:00,57.4,53.2,30.08,SE,125,0.0,0.0,86,0.00,,FEW100,0.00,VWS V14.01,2013-08-17 07:02:00,
2013-08-17 02:03:00,57.4,53.2,30.08,SE,125,0.0,0.0,86,0.00,,FEW100,0.00,VWS V14.01,2013-08-17 07:03:00,
2013-08-17 02:05:00,57.4,53.2,30.08,SE,125,0.0,0.0,86,0.00,,FEW100,0.00,VWS V14.01,2013-08-17 07:05:00,
2013-08-17 02:07:00,57.2,53.1,30.08,SE,125,0.0,0.0,86,0.00,,FEW100,0.00,VWS V14.01,2013-08-17 07:07:00,
2013-08-17 02:08:00,57.2,53.1,30.08,SE,125,0.0,0.0,86,0.00,,FEW100,0.00,VWS V14.01,2013-08-17 07:08:00,
2013-08-17 02:09:00,57.2,53.1,30.08,SE,125,0.0,0.0,86,0.00,,FEW100,0.00,VWS V14.01,2013-08-17 07:09:00,
2013-08-17 02:10:00,57.2,53.1,30.08,SE,125,0.0,0.0,86,0.00,,FEW100,0.00,VWS V14.01,2013-08-17 07:10:00,
2013-08-17 02:12:00,57.2,53.1,30.08,SE,125,0.0,0.0,86,0.00,,FEW100,0.00,VWS V14.01,2013-08-17 07:12:00,
2013-08-17 02:14:00,57.0,52.2,30.08,SE,125,0.0,0.0,84,0.00,,FEW100,0.00,VWS V14.01,2013-08-17 07:14:00,
2013-08-17 02:16:00,56.8,52.1,30.08,SE,125,0.0,0.0,84,0.00,,FEW100,0.00,VWS V14.01,2013-08-17 07:16:00,
2013-08-17 02:18:00,56.8,52.1,30.08,SE,125,0.0,0.0,84,0.00,,FEW100,0.00,VWS V14.01,2013-08-17 07:18:00,
2013-08-17 02:19:00,56.7,51.9,30.08,SE,125,0.0,0.0,84,0.00,,FEW100,0.00,VWS V14.01,2013-08-17 07:19:00,
2013-08-17 02:20:00,56.7,51.9,30.08,SE,125,0.0,0.0,84,0.00,,FEW100,0.00,VWS V14.01,2013-08-17 07:20:00,
2013-08-17 02:21:00,56.7,52.5,30.08,SE,125,0.0,0.0,86,0.00,,FEW100,0.00,VWS V14.01,2013-08-17 07:21:00,
2013-08-17 02:24:00,56.7,53.2,30.08,SE,125,0.0,0.0,88,0.00,,FEW100,0.00,VWS V14.01,2013-08-17 07:24:00,
2013-08-17 02:25:00,56.7,53.2,30.08,SE,125,0.0,0.0,88,0.00,,FEW100,0.00,VWS V14.01,2013-08-17 07:25:00,
2013-08-17 02:29:00,56.7,52.5,30.08,SE,125,0.0,0.0,86,0.00,,FEW100,0.00,VWS V14.01,2013-08-17 07:29:00,
2013-08-17 02:30:00,56.7,52.5,30.08,SE,125,0.0,0.0,86,0.00,,FEW100,0.00,VWS V14.01,2013-08-17 07:30:00,
2013-08-17 02:31:00,56.7,52.5,30.08,SE,125,0.0,0.0,86,0.00,,FEW100,0.00,VWS V14.01,2013-08-17 07:31:00,
2013-08-17 02:34:00,56.7,53.2,30.08,SE,125,0.0,0.0,88,0.00,,FEW100,0.00,VWS V14.01,2013-08-17 07:34:00,
2013-08-17 02:36:00,56.5,53.0,30.08,SE,125,0.0,0.0,88,0.00,,FEW100,0.00,VWS V14.01,2013-08-17 07:36:00,
2013-08-17 02:37:00,56.5,53.0,30.08,SE,125,0.0,0.0,88,0.00,,FEW100,0.00,VWS V14.01,2013-08-17 07:37:00,
2013-08-17 02:41:00,56.7,53.8,30.08,SE,125,0.0,0.0,90,0.00,,FEW100,0.00,VWS V14.01,2013-08-17 07:41:00,
2013-08-17 02:42:00,56.7,53.8,30.11,SE,125,0.0,0.0,90,0.00,,FEW100,0.00,VWS V14.01,2013-08-17 07:42:00,
2013-08-17 02:43:00,56.7,53.8,30.11,SE,125,0.0,0.0,90,0.00,,FEW100,0.00,VWS V14.01,2013-08-17 07:43:00,
2013-08-17 02:47:00,56.7,52.5,30.11,SE,125,0.0,0.0,86,0.00,,FEW100,0.00,VWS V14.01,2013-08-17 07:47:00,
2013-08-17 02:48:00,56.5,52.3,30.11,SE,125,0.0,0.0,86,0.00,,FEW100,0.00,VWS V14.01,2013-08-17 07:48:00,
2013-08-17 02:49:00,56.5,52.3,30.11,SE,125,0.0,0.0,86,0.00,,FEW100,0.00,VWS V14.01,2013-08-17 07:49:00,
2013-08-17 02:52:00,56.3,52.2,30.11,SE,125,0.0,0.0,86,0.00,,FEW100,0.00,VWS V14.01,2013-08-17 07:52:00,
2013-08-17 02:53:00,56.3,52.2,30.11,SE,125,0.0,0.0,86,0.00,,FEW100,0.00,VWS V14.01,2013-08-17 07:53:00,
2013-08-17 02:54:00,56.3,52.2,30.11,SE,125,0.0,0.0,86,0.00,,FEW100,0.00,VWS V14.01,2013-08-17 07:54:00,
2013-08-17 02:55:00,56.1,52.0,30.11,SE,125,0.0,0.0,86,0.00,,FEW100,0.00,VWS V14.01,2013-08-17 07:55:00,
2013-08-17 02:57:00,56.1,52.6,30.11,SE,125,0.0,0.0,88,0.00,,FEW100,0.00,VWS V14.01,2013-08-17 07:57:00,
2013-08-17 02:58:00,55.9,52.4,30.11,SE,125,0.0,0.0,88,0.00,,FEW100,0.00,VWS V14.01,2013-08-17 07:58:00,
2013-08-17 03:00:00,55.9,52.4,30.11,SE,125,0.0,0.0,88,0.00,,FEW100,0.00,VWS V14.01,2013-08-17 08:00:00,
2013-08-17 03:03:00,55.9,52.4,30.11,SE,125,0.0,0.0,88,0.00,,FEW100,0.00,VWS V14.01,2013-08-17 08:03:00,
2013-08-17 03:04:00,55.9,52.4,30.11,SE,125,0.0,0.0,88,0.00,,FEW100,0.00,VWS V14.01,2013-08-17 08:04:00,
2013-08-17 03:05:00,55.8,52.3,30.11,SE,125,0.0,0.0,88,0.00,,FEW100,0.00,VWS V14.01,2013-08-17 08:05:00,
2013-08-17 03:08:00,55.8,52.3,30.11,SE,125,0.0,0.0,88,0.00,,FEW100,0.00,VWS V14.01,2013-08-17 08:08:00,
2013-08-17 03:09:00,55.8,52.9,30.11,SE,125,0.0,0.0,90,0.00,,FEW100,0.00,VWS V14.01,2013-08-17 08:09:00,
2013-08-17 03:10:00,55.8,52.9,30.11,SE,125,0.0,0.0,90,0.00,,FEW100,0.00,VWS V14.01,2013-08-17 08:10:00,
2013-08-17 03:13:00,55.8,52.9,30.11,SE,125,0.0,0.0,90,0.00,,FEW100,0.00,VWS V14.01,2013-08-17 08:13:00,
2013-08-17 03:14:00,55.8,52.9,30.11,SE,125,0.0,0.0,90,0.00,,FEW100,0.00,VWS V14.01,2013-08-17 08:14:00,
2013-08-17 03:15:00,55.9,53.0,30.11,SE,125,0.0,0.0,90,0.00,,FEW100,0.00,VWS V14.01,2013-08-17 08:15:00,
2013-08-17 03:17:00,55.9,53.0,30.11,SE,125,0.0,0.0,90,0.00,,FEW100,0.00,VWS V14.01,2013-08-17 08:17:00,
2013-08-17 03:18:00,55.9,53.0,30.11,SE,125,0.0,0.0,90,0.00,,FEW100,0.00,VWS V14.01,2013-08-17 08:18:00,
2013-08-17 03:19:00,55.9,53.0,30.11,SE,125,0.0,0.0,90,0.00,,FEW100,0.00,VWS V14.01,2013-08-17 08:19:00,
2013-08-17 03:20:00,55.8,52.9,30.11,SE,125,0.0,0.0,90,0.00,,FEW100,0.00,VWS V14.01,2013-08-17 08:20:00,
2013-08-17 03:22:00,55.8,52.9,30.11,SE,125,0.0,0.0,90,0.00,,FEW100,0.00,VWS V14.01,2013-08-17 08:22:00,
2013-08-17 03:24:00,55.8,52.9,30.11,SE,125,0.0,0.0,90,0.00,,FEW100,0.00,VWS V14.01,2013-08-17 08:24:00,
2013-08-17 03:25:00,55.8,52.9,30.11,SE,125,0.0,0.0,90,0.00,,FEW100,0.00,VWS V14.01,2013-08-17 08:25:00,
2013-08-17 03:27:00,55.9,53.7,30.11,SE,125,0.0,0.0,92,0.00,,FEW100,0.00,VWS V14.01,2013-08-17 08:27:00,
2013-08-17 03:28:00,55.9,53.7,30.11,SE,125,0.0,0.0,92,0.00,,FEW100,0.00,VWS V14.01,2013-08-17 08:28:00,
2013-08-17 03:29:00,55.9,53.0,30.11,SE,125,0.0,0.0,90,0.00,,FEW100,0.00,VWS V14.01,2013-08-17 08:29:00,
2013-08-17 03:30:00,55.9,53.0,30.11,SE,125,0.0,0.0,90,0.00,,FEW100,0.00,VWS V14.01,2013-08-17 08:30:00,
2013-08-17 03:32:00,55.9,53.0,30.11,SE,125,0.0,0.0,90,0.00,,FEW100,0.00,VWS V14.01,2013-08-17 08:32:00,
2013-08-17 03:34:00,55.9,53.7,30.11,SE,125,0.0,0.0,92,0.00,,FEW100,0.00,VWS V14.01,2013-08-17 08:34:00,
2013-08-17 03:35:00,56.1,53.8,30.11,SE,125,0.0,0.0,92,0.00,,FEW100,0.00,VWS V14.01,2013-08-17 08:35:00,
2013-08-17 03:36:00,56.1,53.8,30.11,SE,125,0.0,0.0,92,0.00,,FEW100,0.00,VWS V14.01,2013-08-17 08:36:00,
2013-08-17 03:38:00,56.3,54.6,30.11,SE,125,0.0,0.0,94,0.00,,FEW100,0.00,VWS V14.01,2013-08-17 08:38:00,
2013-08-17 03:39:00,56.3,54.6,30.11,SE,125,0.0,0.0,94,0.00,,FEW100,0.00,VWS V14.01,2013-08-17 08:39:00,
2013-08-17 03:41:00,56.5,54.2,30.11,SE,125,0.0,0.0,92,0.00,,FEW100,0.00,VWS V14.01,2013-08-17 08:41:00,
2013-08-17 03:42:00,56.5,54.2,30.11,SE,125,0.0,0.0,92,0.00,,FEW100,0.00,VWS V14.01,2013-08-17 08:42:00,
2013-08-17 03:43:00,56.5,54.2,30.11,SE,125,0.0,0.0,92,0.00,,FEW100,0.00,VWS V14.01,2013-08-17 08:43:00,
2013-08-17 03:44:00,56.5,54.2,30.11,SE,125,0.0,0.0,92,0.00,,FEW100,0.00,VWS V14.01,2013-08-17 08:44:00,
2013-08-17 03:46:00,56.5,54.2,30.11,SE,125,0.0,0.0,92,0.00,,FEW100,0.00,VWS V14.01,2013-08-17 08:46:00,
2013-08-17 03:47:00,56.5,54.2,30.11,SE,125,0.0,0.0,92,0.00,,FEW100,0.00,VWS V14.01,2013-08-17 08:47:00,
2013-08-17 03:49:00,56.5,54.2,30.11,SE,125,0.0,0.0,92,0.00,,FEW100,0.00,VWS V14.01,2013-08-17 08:49:00,
2013-08-17 03:51:00,56.3,54.0,30.11,SE,125,0.0,0.0,92,0.00,,FEW100,0.00,VWS V14.01,2013-08-17 08:51:00,
2013-08-17 03:52:00,56.3,54.0,30.11,SE,125,0.0,0.0,92,0.00,,FEW100,0.00,VWS V14.01,2013-08-17 08:52:00,
2013-08-17 03:54:00,56.1,53.8,30.11,SE,125,0.0,0.0,92,0.00,,FEW100,0.00,VWS V14.01,2013-08-17 08:54:00,
2013-08-17 03:55:00,56.1,53.8,30.11,SE,125,0.0,0.0,92,0.00,,FEW100,0.00,VWS V14.01,2013-08-17 08:55:00,
2013-08-17 03:56:00,56.1,53.8,30.11,SE,125,0.0,0.0,92,0.00,,FEW100,0.00,VWS V14.01,2013-08-17 08:56:00,
2013-08-17 03:58:00,55.9,53.7,30.11,SE,125,0.0,0.0,92,0.00,,FEW100,0.00,VWS V14.01,2013-08-17 08:58:00,
2013-08-17 03:59:00,55.9,53.7,30.11,SE,125,0.0,0.0,92,0.00,,FEW100,0.00,VWS V14.01,2013-08-17 08:59:00,
2013-08-17 04:00:00,55.9,53.7,30.11,SE,125,0.0,0.0,92,0.00,,FEW100,0.00,VWS V14.01,2013-08-17 09:00:00,
2013-08-17 04:01:00,55.9,53.7,30.11,SE,125,0.0,0.0,92,0.00,,FEW100,0.00,VWS V14.01,2013-08-17 09:01:00,
2013-08-17 04:04:00,55.8,53.5,30.11,SE,125,0.0,0.0,92,0.00,,FEW100,0.00,VWS V14.01,2013-08-17 09:04:00,
2013-08-17 04:05:00,55.6,53.3,30.11,SE,125,0.0,0.0,92,0.00,,FEW100,0.00,VWS V14.01,2013-08-17 09:05:00,
2013-08-17 04:06:00,55.6,53.3,30.11,SE,125,0.0,0.0,92,0.00,,FEW100,0.00,VWS V14.01,2013-08-17 09:06:00,
2013-08-17 04:09:00,55.2,52.9,30.11,SE,125,0.0,0.0,92,0.00,,FEW100,0.00,VWS V14.01,2013-08-17 09:09:00,
2013-08-17 04:10:00,55.2,52.9,30.11,SE,125,0.0,0.0,92,0.00,,FEW100,0.00,VWS V14.01,2013-08-17 09:10:00,
2013-08-17 04:11:00,55.0,52.8,30.11,SE,125,0.0,0.0,92,0.00,,FEW100,0.00,VWS V14.01,2013-08-17 09:11:00,
2013-08-17 04:12:00,55.0,52.8,30.11,SE,125,0.0,0.0,92,0.00,,FEW100,0.00,VWS V14.01,2013-08-17 09:12:00,
2013-08-17 04:15:00,55.0,53.3,30.11,SE,125,0.0,0.0,94,0.00,,FEW100,0.00,VWS V14.01,2013-08-17 09:15:00,
2013-08-17 04:16:00,55.0,53.3,30.11,SE,125,0.0,0.0,94,0.00,,FEW100,0.00,VWS V14.01,2013-08-17 09:16:00,
2013-08-17 04:17:00,55.0,53.3,30.11,SE,125,0.0,0.0,94,0.00,,FEW100,0.00,VWS V14.01,2013-08-17 09:17:00,
2013-08-17 04:21:00,55.0,53.9,30.11,SE,125,0.0,0.0,96,0.00,,FEW100,0.00,VWS V14.01,2013-08-17 09:21:00,
2013-08-17 04:22:00,55.0,53.9,30.11,SE,125,0.0,0.0,96,0.00,,FEW100,0.00,VWS V14.01,2013-08-17 09:22:00,
2013-08-17 04:23:00,55.0,53.9,30.11,SE,125,0.0,0.0,96,0.00,,FEW100,0.00,VWS V14.01,2013-08-17 09:23:00,
2013-08-17 04:27:00,55.0,54.5,30.11,SE,125,0.0,0.0,98,0.00,,FEW100,0.00,VWS V14.01,2013-08-17 09:27:00,
2013-08-17 04:28:00,55.0,54.5,30.11,SE,125,0.0,0.0,98,0.00,,FEW100,0.00,VWS V14.01,2013-08-17 09:28:00,
2013-08-17 04:29:00,55.2,54.7,30.11,SE,125,0.0,0.0,98,0.00,,FEW100,0.00,VWS V14.01,2013-08-17 09:29:00,
2013-08-17 04:33:00,55.4,55.4,30.11,SE,125,0.0,0.0,100,0.00,,FEW100,0.00,VWS V14.01,2013-08-17 09:33:00,
2013-08-17 04:34:00,55.4,55.4,30.11,SE,125,0.0,0.0,100,0.00,,FEW100,0.00,VWS V14.01,2013-08-17 09:34:00,
2013-08-17 04:35:00,55.6,55.6,30.11,SE,125,0.0,0.0,100,0.00,,FEW100,0.00,VWS V14.01,2013-08-17 09:35:00,
2013-08-17 04:38:00,55.6,55.6,30.11,SE,125,0.0,0.0,100,0.00,,FEW100,0.00,VWS V14.01,2013-08-17 09:38:00,
2013-08-17 04:39:00,55.6,55.6,30.11,SE,125,0.0,0.0,100,0.00,,FEW100,0.00,VWS V14.01,2013-08-17 09:39:00,
2013-08-17 04:40:00,55.4,54.8,30.11,SE,125,0.0,0.0,98,0.00,,FEW100,0.00,VWS V14.01,2013-08-17 09:40:00,
2013-08-17 04:43:00,55.2,54.7,30.11,SE,125,0.0,0.0,98,0.00,,FEW100,0.00,VWS V14.01,2013-08-17 09:43:00,
2013-08-17 04:44:00,55.2,54.7,30.11,SE,125,0.0,0.0,98,0.00,,FEW100,0.00,VWS V14.01,2013-08-17 09:44:00,
2013-08-17 04:45:00,55.2,54.7,30.11,SE,125,0.0,0.0,98,0.00,,FEW100,0.00,VWS V14.01,2013-08-17 09:45:00,
2013-08-17 04:47:00,55.2,55.2,30.11,SE,125,0.0,0.0,100,0.00,,FEW100,0.00,VWS V14.01,2013-08-17 09:47:00,
2013-08-17 04:49:00,55.2,55.2,30.11,SE,125,0.0,0.0,100,0.00,,FEW100,0.00,VWS V14.01,2013-08-17 09:49:00,
2013-08-17 04:50:00,55.2,55.2,30.11,SE,125,0.0,0.0,100,0.00,,FEW100,0.00,VWS V14.01,2013-08-17 09:50:00,
2013-08-17 04:52:00,55.0,55.0,30.11,SE,125,0.0,0.0,100,0.00,,FEW100,0.00,VWS V14.01,2013-08-17 09:52:00,
2013-08-17 04:53:00,55.2,55.2,30.11,SE,125,0.0,0.0,100,0.00,,FEW100,0.00,VWS V14.01,2013-08-17 09:53:00,
2013-08-17 04:54:00,55.2,55.2,30.11,SE,125,0.0,0.0,100,0.00,,FEW100,0.00,VWS V14.01,2013-08-17 09:54:00,
2013-08-17 04:55:00,55.2,55.2,30.11,SE,125,0.0,0.0,100,0.00,,FEW100,0.00,VWS V14.01,2013-08-17 09:55:00,
2013-08-17 04:56:00,55.2,55.2,30.11,SE,125,0.0,0.0,100,0.00,,FEW100,0.00,VWS V14.01,2013-08-17 09:56:00,
2013-08-17 04:59:00,55.4,55.4,30.11,SE,125,0.0,0.0,100,0.00,,FEW100,0.00,VWS V14.01,2013-08-17 09:59:00,
2013-08-17 05:00:00,55.4,55.4,30.11,SE,125,0.0,0.0,100,0.00,,FEW100,0.00,VWS V14.01,2013-08-17 10:00:00,
2013-08-17 05:01:00,55.4,55.4,30.11,SE,125,0.0,0.0,100,0.00,,FEW100,0.00,VWS V14.01,2013-08-17 10:01:00,
2013-08-17 05:05:00,55.4,55.4,30.11,SE,125,0.0,0.0,100,0.00,,FEW100,0.00,VWS V14.01,2013-08-17 10:05:00,
2013-08-17 05:06:00,55.4,55.4,30.11,SE,125,0.0,0.0,100,0.00,,FEW100,0.00,VWS V14.01,2013-08-17 10:06:00,
2013-08-17 05:07:00,55.4,55.4,30.11,SE,125,0.0,0.0,100,0.00,,FEW100,0.00,VWS V14.01,2013-08-17 10:07:00,
2013-08-17 05:10:00,55.6,55.6,30.11,SE,125,0.0,0.0,100,0.00,,FEW100,0.00,VWS V14.01,2013-08-17 10:10:00,
2013-08-17 05:11:00,55.6,55.6,30.11,SE,125,0.0,0.0,100,0.00,,FEW100,0.00,VWS V14.01,2013-08-17 10:11:00,
2013-08-17 05:12:00,55.6,55.6,30.11,SE,125,0.0,0.0,100,0.00,,FEW100,0.00,VWS V14.01,2013-08-17 10:12:00,
2013-08-17 05:15:00,55.6,55.6,30.11,SE,125,0.0,0.0,100,0.00,,FEW100,0.00,VWS V14.01,2013-08-17 10:15:00,
2013-08-17 05:16:00,55.6,55.6,30.11,SE,125,0.0,0.0,100,0.00,,FEW100,0.00,VWS V14.01,2013-08-17 10:16:00,
2013-08-17 05:17:00,55.8,55.8,30.11,SE,125,0.0,0.0,100,0.00,,FEW100,0.00,VWS V14.01,2013-08-17 10:17:00,
2013-08-17 05:18:00,55.8,55.8,30.11,SE,125,0.0,0.0,100,0.00,,FEW100,0.00,VWS V14.01,2013-08-17 10:18:00,
2013-08-17 05:21:00,55.6,55.6,30.11,SE,125,0.0,0.0,100,0.00,,FEW100,0.00,VWS V14.01,2013-08-17 10:21:00,
2013-08-17 05:22:00,55.4,55.4,30.11,SE,125,0.0,0.0,100,0.00,,FEW100,0.00,VWS V14.01,2013-08-17 10:22:00,
2013-08-17 05:24:00,55.2,55.2,30.11,SE,125,0.0,0.0,100,0.00,,FEW100,0.00,VWS V14.01,2013-08-17 10:24:00,
2013-08-17 05:26:00,55.0,55.0,30.11,SE,125,0.0,0.0,100,0.00,,FEW100,0.00,VWS V14.01,2013-08-17 10:26:00,
2013-08-17 05:27:00,55.2,55.2,30.11,SE,125,0.0,0.0,100,0.00,,FEW100,0.00,VWS V14.01,2013-08-17 10:27:00,
2013-08-17 05:28:00,55.2,55.2,30.11,SE,125,0.0,0.0,100,0.00,,FEW100,0.00,VWS V14.01,2013-08-17 10:28:00,
2013-08-17 05:30:00,55.4,55.4,30.11,SE,125,0.0,0.0,100,0.00,,FEW100,0.00,VWS V14.01,2013-08-17 10:30:00,
2013-08-17 05:32:00,55.6,55.6,30.11,SE,125,0.0,0.0,100,0.00,,FEW100,0.00,VWS V14.01,2013-08-17 10:32:00,
2013-08-17 05:33:00,55.8,55.8,30.11,SE,125,0.0,0.0,100,0.00,,FEW100,0.00,VWS V14.01,2013-08-17 10:33:00,
2013-08-17 05:35:00,55.6,55.6,30.11,SE,125,0.0,0.0,100,0.00,,FEW100,0.00,VWS V14.01,2013-08-17 10:35:00,
2013-08-17 05:37:00,55.4,55.4,30.11,SE,125,0.0,0.0,100,0.00,,FEW100,0.00,VWS V14.01,2013-08-17 10:37:00,
2013-08-17 05:38:00,55.4,55.4,30.11,SE,125,0.0,0.0,100,0.00,,FEW100,0.00,VWS V14.01,2013-08-17 10:38:00,
2013-08-17 05:39:00,55.2,55.2,30.11,SE,125,0.0,0.0,100,0.00,,FEW100,0.00,VWS V14.01,2013-08-17 10:39:00,
2013-08-17 05:40:00,55.2,55.2,30.11,SE,125,0.0,0.0,100,0.00,,FEW100,0.00,VWS V14.01,2013-08-17 10:40:00,
2013-08-17 05:43:00,55.2,55.2,30.11,SE,125,0.0,0.0,100,0.00,,FEW100,0.00,VWS V14.01,2013-08-17 10:43:00,
2013-08-17 05:44:00,55.2,55.2,30.11,SE,125,0.0,0.0,100,0.00,,FEW100,0.00,VWS V14.01,2013-08-17 10:44:00,
2013-08-17 05:46:00,55.2,55.2,30.11,SE,125,0.0,0.0,100,0.00,,FEW100,0.00,VWS V14.01,2013-08-17 10:46:00,
2013-08-17 05:49:00,55.2,55.2,30.11,SE,125,0.0,0.0,100,0.00,,FEW100,0.00,VWS V14.01,2013-08-17 10:49:00,
2013-08-17 05:50:00,55.2,55.2,30.11,SE,125,0.0,0.0,100,0.00,,FEW100,0.00,VWS V14.01,2013-08-17 10:50:00,
2013-08-17 05:53:00,55.2,55.2,30.11,SE,125,0.0,0.0,100,0.00,,FEW100,0.00,VWS V14.01,2013-08-17 10:53:00,
2013-08-17 05:54:00,55.4,55.4,30.11,SE,125,0.0,0.0,100,0.00,,FEW100,0.00,VWS V14.01,2013-08-17 10:54:00,
2013-08-17 05:55:00,55.4,55.4,30.11,SE,125,0.0,0.0,100,0.00,,FEW100,0.00,VWS V14.01,2013-08-17 10:55:00,
2013-08-17 05:56:00,55.4,55.4,30.11,SE,125,0.0,0.0,100,0.00,,FEW100,0.00,VWS V14.01,2013-08-17 10:56:00,
2013-08-17 05:58:00,55.4,55.4,30.11,SE,125,0.0,0.0,100,0.00,,FEW100,0.00,VWS V14.01,2013-08-17 10:58:00,
2013-08-17 06:00:00,55.2,55.2,30.11,SE,125,0.0,0.0,100,0.00,,FEW100,0.00,VWS V14.01,2013-08-17 11:00:00,
2013-08-17 06:01:00,55.2,55.2,30.11,SE,125,0.0,0.0,100,0.00,,FEW100,0.00,VWS V14.01,2013-08-17 11:01:00,
2013-08-17 06:03:00,55.2,55.2,30.11,SE,125,0.0,0.0,100,0.00,,FEW100,0.00,VWS V14.01,2013-08-17 11:03:00,
2013-08-17 06:05:00,55.2,55.2,30.11,SE,125,0.0,0.0,100,0.00,,FEW100,0.00,VWS V14.01,2013-08-17 11:05:00,
2013-08-17 06:06:00,55.2,55.2,30.11,SE,125,0.0,0.0,100,0.00,,FEW100,0.00,VWS V14.01,2013-08-17 11:06:00,
2013-08-17 06:07:00,55.2,55.2,30.11,SE,125,0.0,0.0,100,0.00,,FEW100,0.00,VWS V14.01,2013-08-17 11:07:00,
2013-08-17 06:08:00,55.2,55.2,30.11,SE,125,0.0,0.0,100,0.00,,FEW100,0.00,VWS V14.01,2013-08-17 11:08:00,
2013-08-17 06:10:00,55.2,55.2,30.11,SE,125,0.0,0.0,100,0.00,,FEW100,0.00,VWS V14.01,2013-08-17 11:10:00,
2013-08-17 06:11:00,55.0,55.0,30.11,SE,125,0.0,0.0,100,0.00,,FEW100,0.00,VWS V14.01,2013-08-17 11:11:00,
2013-08-17 06:12:00,55.0,55.0,30.11,SE,124,0.0,0.0,100,0.00,,FEW100,0.00,VWS V14.01,2013-08-17 11:12:00,
2013-08-17 06:15:00,55.0,55.0,30.11,SE,125,0.0,0.0,100,0.00,,FEW100,0.00,VWS V14.01,2013-08-17 11:15:00,
2013-08-17 06:16:00,55.0,55.0,30.11,SE,125,0.0,0.0,100,0.00,,FEW100,0.00,VWS V14.01,2013-08-17 11:16:00,
2013-08-17 06:17:00,54.9,54.9,30.11,SE,125,0.0,0.0,100,0.00,,FEW100,0.00,VWS V14.01,2013-08-17 11:17:00,
2013-08-17 06:20:00,54.9,54.9,30.11,SE,125,0.0,0.0,100,0.00,,FEW100,0.00,VWS V14.01,2013-08-17 11:20:00,
2013-08-17 06:22:00,54.7,54.7,30.11,SE,125,0.0,0.0,100,0.00,,FEW100,0.00,VWS V14.01,2013-08-17 11:22:00,
2013-08-17 06:23:00,54.7,54.7,30.11,SE,125,0.0,0.0,100,0.00,,FEW100,0.00,VWS V14.01,2013-08-17 11:23:00,
2013-08-17 06:24:00,54.7,54.7,30.11,SE,125,0.0,0.0,100,0.00,,FEW100,0.00,VWS V14.01,2013-08-17 11:24:00,
2013-08-17 06:26:00,54.5,54.5,30.11,SE,125,0.0,0.0,100,0.00,,FEW100,0.00,VWS V14.01,2013-08-17 11:26:00,
2013-08-17 06:28:00,54.7,54.7,30.11,SE,125,0.0,0.0,100,0.00,,FEW100,0.00,VWS V14.01,2013-08-17 11:28:00,
2013-08-17 06:29:00,54.7,54.7,30.11,SE,125,0.0,0.0,100,0.00,,FEW100,0.00,VWS V14.01,2013-08-17 11:29:00,
2013-08-17 06:31:00,54.7,54.7,30.11,SE,125,0.0,0.0,100,0.00,,FEW100,0.00,VWS V14.01,2013-08-17 11:31:00,
2013-08-17 06:33:00,54.7,54.7,30.11,SE,125,0.0,0.0,100,0.00,,FEW100,0.00,VWS V14.01,2013-08-17 11:33:00,
2013-08-17 06:35:00,54.5,54.5,30.11,SE,125,0.0,0.0,100,0.00,,FEW100,0.00,VWS V14.01,2013-08-17 11:35:00,
2013-08-17 06:36:00,54.5,54.5,30.11,SE,125,0.0,0.0,100,0.00,,FEW100,0.00,VWS V14.01,2013-08-17 11:36:00,
2013-08-17 06:38:00,54.5,54.5,30.11,SE,125,0.0,0.0,100,0.00,,FEW100,0.00,VWS V14.01,2013-08-17 11:38:00,
2013-08-17 06:39:00,54.5,54.5,30.11,SE,125,0.0,0.0,100,0.00,,FEW100,0.00,VWS V14.01,2013-08-17 11:39:00,
2013-08-17 06:40:00,54.5,54.5,30.11,SE,125,0.0,0.0,100,0.00,,FEW100,0.00,VWS V14.01,2013-08-17 11:40:00,
2013-08-17 06:41:00,54.5,54.5,30.11,SE,125,0.0,0.0,100,0.00,,FEW100,0.00,VWS V14.01,2013-08-17 11:41:00,
2013-08-17 06:43:00,54.5,54.5,30.11,SE,125,0.0,0.0,100,0.00,,FEW100,0.00,VWS V14.01,2013-08-17 11:43:00,
2013-08-17 06:44:00,54.5,54.5,30.11,SE,125,0.0,0.0,100,0.00,,FEW100,0.00,VWS V14.01,2013-08-17 11:44:00,
2013-08-17 06:46:00,54.5,54.5,30.11,SE,125,0.0,0.0,100,0.00,,FEW100,0.00,VWS V14.01,2013-08-17 11:46:00,
2013-08-17 06:47:00,54.5,54.5,30.11,SE,125,0.0,0.0,100,0.00,,FEW100,0.00,VWS V14.01,2013-08-17 11:47:00,
2013-08-17 06:49:00,54.5,54.5,30.11,SE,125,0.0,0.0,100,0.00,,FEW100,0.00,VWS V14.01,2013-08-17 11:49:00,
2013-08-17 06:51:00,54.9,54.9,30.11,SE,125,0.0,0.0,100,0.00,,FEW100,0.00,VWS V14.01,2013-08-17 11:51:00,
2013-08-17 06:52:00,54.9,54.9,30.11,SE,125,0.0,0.0,100,0.00,,FEW100,0.00,VWS V14.01,2013-08-17 11:52:00,
2013-08-17 06:53:00,55.0,55.0,30.11,SE,125,0.0,0.0,100,0.00,,FEW100,0.00,VWS V14.01,2013-08-17 11:53:00,
2013-08-17 06:54:00,55.2,55.2,30.11,SE,125,0.0,0.0,100,0.00,,FEW100,0.00,VWS V14.01,2013-08-17 11:54:00,
2013-08-17 06:55:00,55.4,55.4,30.11,SE,125,0.0,0.0,100,0.00,,FEW100,0.00,VWS V14.01,2013-08-17 11:55:00,
2013-08-17 06:57:00,55.4,55.4,30.11,SE,125,0.0,0.0,100,0.00,,FEW100,0.00,VWS V14.01,2013-08-17 11:57:00,
2013-08-17 06:58:00,55.4,55.4,30.11,SE,125,0.0,0.0,100,0.00,,FEW100,0.00,VWS V14.01,2013-08-17 11:58:00,
2013-08-17 06:59:00,55.6,55.6,30.11,SE,125,0.0,0.0,100,0.00,,FEW100,0.00,VWS V14.01,2013-08-17 11:59:00,
2013-08-17 07:00:00,55.6,55.6,30.11,SE,125,0.0,0.0,100,0.00,,FEW100,0.00,VWS V14.01,2013-08-17 12:00:00,
2013-08-17 07:03:00,55.8,55.8,30.11,SE,125,0.0,0.0,100,0.00,,FEW100,0.00,VWS V14.01,2013-08-17 12:03:00,
2013-08-17 07:04:00,55.9,55.9,30.11,SE,125,0.0,0.0,100,0.00,,FEW100,0.00,VWS V14.01,2013-08-17 12:04:00,
2013-08-17 07:06:00,55.9,55.9,30.11,SE,125,0.0,0.0,100,0.00,,FEW100,0.00,VWS V14.01,2013-08-17 12:06:00,
2013-08-17 07:09:00,56.3,56.3,30.11,SE,125,0.0,0.0,100,0.00,,FEW100,0.00,VWS V14.01,2013-08-17 12:09:00,
2013-08-17 07:10:00,56.3,56.3,30.11,SE,125,0.0,0.0,100,0.00,,FEW100,0.00,VWS V14.01,2013-08-17 12:10:00,
2013-08-17 07:11:00,56.3,56.3,30.11,SE,125,0.0,0.0,100,0.00,,FEW100,0.00,VWS V14.01,2013-08-17 12:11:00,
2013-08-17 07:14:00,56.7,56.7,30.11,SE,125,0.0,0.0,100,0.00,,FEW100,0.00,VWS V14.01,2013-08-17 12:14:00,
2013-08-17 07:15:00,56.7,56.7,30.11,SE,125,0.0,0.0,100,0.00,,FEW100,0.00,VWS V14.01,2013-08-17 12:15:00,
2013-08-17 07:16:00,56.7,56.7,30.11,SE,125,0.0,0.0,100,0.00,,FEW100,0.00,VWS V14.01,2013-08-17 12:16:00,
2013-08-17 07:17:00,56.8,56.8,30.11,SE,125,0.0,0.0,100,0.00,,FEW100,0.00,VWS V14.01,2013-08-17 12:17:00,
2013-08-17 07:19:00,56.8,56.8,30.11,SE,125,0.0,0.0,100,0.00,,FEW100,0.00,VWS V14.01,2013-08-17 12:19:00,
2013-08-17 07:21:00,56.8,56.8,30.11,SE,125,0.0,0.0,100,0.00,,FEW100,0.00,VWS V14.01,2013-08-17 12:21:00,
2013-08-17 07:23:00,57.0,57.0,30.11,SE,125,0.0,0.0,100,0.00,,FEW100,0.00,VWS V14.01,2013-08-17 12:23:00,
2013-08-17 07:27:00,57.2,57.2,30.14,SE,125,0.0,0.0,100,0.00,,FEW100,0.00,VWS V14.01,2013-08-17 12:27:00,
2013-08-17 07:28:00,57.2,57.2,30.14,SE,125,0.0,0.0,100,0.00,,FEW100,0.00,VWS V14.01,2013-08-17 12:28:00,
2013-08-17 07:32:00,57.9,57.9,30.14,SE,125,0.0,0.0,100,0.00,,FEW100,0.00,VWS V14.01,2013-08-17 12:32:00,
2013-08-17 07:33:00,57.9,57.9,30.14,SE,125,0.0,0.0,100,0.00,,FEW100,0.00,VWS V14.01,2013-08-17 12:33:00,
2013-08-17 07:34:00,58.1,58.1,30.14,SE,125,0.0,0.0,100,0.00,,FEW100,0.00,VWS V14.01,2013-08-17 12:34:00,
2013-08-17 07:38:00,58.6,58.6,30.14,SE,125,0.0,0.0,100,0.00,,FEW100,0.00,VWS V14.01,2013-08-17 12:38:00,
2013-08-17 07:39:00,59.0,59.0,30.14,SE,125,0.0,0.0,100,0.00,,FEW100,0.00,VWS V14.01,2013-08-17 12:39:00,
2013-08-17 07:43:00,59.5,59.5,30.14,SE,125,0.0,0.0,100,0.00,,FEW100,0.00,VWS V14.01,2013-08-17 12:43:00,
2013-08-17 07:44:00,59.5,59.5,30.14,SE,125,0.0,0.0,100,0.00,,FEW100,0.00,VWS V14.01,2013-08-17 12:44:00,
2013-08-17 07:45:00,59.7,59.7,30.14,SE,125,0.0,0.0,100,0.00,,FEW100,0.00,VWS V14.01,2013-08-17 12:45:00,
2013-08-17 07:49:00,60.8,60.8,30.14,SE,125,0.0,0.0,100,0.00,,FEW100,0.00,VWS V14.01,2013-08-17 12:49:00,
2013-08-17 07:50:00,61.0,61.0,30.14,SE,125,0.0,0.0,100,0.00,,FEW100,0.00,VWS V14.01,2013-08-17 12:50:00,
2013-08-17 07:52:00,61.9,61.9,30.14,SE,125,0.0,0.0,100,0.00,,FEW100,0.00,VWS V14.01,2013-08-17 12:52:00,
2013-08-17 07:54:00,62.1,62.1,30.14,SE,125,0.0,0.0,100,0.00,,FEW100,0.00,VWS V14.01,2013-08-17 12:54:00,
2013-08-17 07:55:00,62.2,62.2,30.14,SE,125,0.0,0.0,100,0.00,,FEW100,0.00,VWS V14.01,2013-08-17 12:55:00,
2013-08-17 07:56:00,62.6,62.6,30.14,SE,125,0.0,0.0,100,0.00,,FEW100,0.00,VWS V14.01,2013-08-17 12:56:00,
2013-08-17 07:57:00,63.1,63.1,30.14,SE,125,0.0,0.0,100,0.00,,FEW100,0.00,VWS V14.01,2013-08-17 12:57:00,
2013-08-17 07:59:00,63.5,63.5,30.14,SE,125,0.0,0.0,100,0.00,,FEW100,0.00,VWS V14.01,2013-08-17 12:59:00,
2013-08-17 08:00:00,63.5,63.5,30.14,SE,125,0.0,0.0,100,0.00,,FEW100,0.00,VWS V14.01,2013-08-17 13:00:00,
2013-08-17 08:01:00,63.7,63.7,30.14,SE,125,0.0,0.0,100,0.00,,FEW100,0.00,VWS V14.01,2013-08-17 13:01:00,
2013-08-17 08:02:00,63.7,63.7,30.14,SE,125,0.0,0.0,100,0.00,,FEW100,0.00,VWS V14.01,2013-08-17 13:02:00,
2013-08-17 08:05:00,63.5,63.5,30.14,SE,125,0.0,0.0,100,0.00,,FEW100,0.00,VWS V14.01,2013-08-17 13:05:00,
2013-08-17 08:06:00,63.5,63.5,30.14,SE,125,0.0,0.0,100,0.00,,FEW100,0.00,VWS V14.01,2013-08-17 13:06:00,
2013-08-17 08:08:00,63.5,63.5,30.14,SE,125,0.0,0.0,100,0.00,,FEW100,0.00,VWS V14.01,2013-08-17 13:08:00,
2013-08-17 08:09:00,63.7,63.7,30.14,SE,125,0.0,0.0,100,0.00,,FEW100,0.00,VWS V14.01,2013-08-17 13:09:00,
2013-08-17 08:10:00,63.7,63.7,30.14,SE,125,0.0,0.0,100,0.00,,FEW100,0.00,VWS V14.01,2013-08-17 13:10:00,
2013-08-17 08:11:00,63.7,63.7,30.14,SE,125,0.0,0.0,100,0.00,,FEW100,0.00,VWS V14.01,2013-08-17 13:11:00,
2013-08-17 08:12:00,63.9,63.9,30.14,SE,125,0.0,0.0,100,0.00,,FEW100,0.00,VWS V14.01,2013-08-17 13:12:00,
2013-08-17 08:13:00,63.9,63.9,30.14,SE,125,0.0,0.0,100,0.00,,FEW100,0.00,VWS V14.01,2013-08-17 13:13:00,
2013-08-17 08:14:00,63.9,63.9,30.14,SE,125,0.0,0.0,100,0.00,,FEW100,0.00,VWS V14.01,2013-08-17 13:14:00,
2013-08-17 08:16:00,64.2,64.2,30.14,SE,125,0.0,0.0,100,0.00,,FEW100,0.00,VWS V14.01,2013-08-17 13:16:00,
2013-08-17 08:17:00,64.2,64.2,30.14,SE,125,0.0,0.0,100,0.00,,FEW100,0.00,VWS V14.01,2013-08-17 13:17:00,
2013-08-17 08:19:00,64.4,64.4,30.14,SE,125,0.0,0.0,100,0.00,,FEW100,0.00,VWS V14.01,2013-08-17 13:19:00,
2013-08-17 08:22:00,64.6,64.6,30.14,SE,125,0.0,0.0,100,0.00,,FEW100,0.00,VWS V14.01,2013-08-17 13:22:00,
2013-08-17 08:23:00,64.8,64.8,30.14,SE,125,0.0,0.0,100,0.00,,FEW100,0.00,VWS V14.01,2013-08-17 13:23:00,
2013-08-17 08:24:00,64.8,64.8,30.14,SE,125,0.0,0.0,100,0.00,,FEW100,0.00,VWS V14.01,2013-08-17 13:24:00,
2013-08-17 08:27:00,65.5,65.5,30.14,SE,125,0.0,0.0,100,0.00,,FEW100,0.00,VWS V14.01,2013-08-17 13:27:00,
2013-08-17 08:28:00,65.7,65.7,30.14,SE,125,0.0,0.0,100,0.00,,FEW100,0.00,VWS V14.01,2013-08-17 13:28:00,
2013-08-17 08:29:00,65.8,65.8,30.14,SE,125,0.0,0.0,100,0.00,,FEW100,0.00,VWS V14.01,2013-08-17 13:29:00,
2013-08-17 08:30:00,65.8,65.8,30.14,SE,125,0.0,0.0,100,0.00,,FEW100,0.00,VWS V14.01,2013-08-17 13:30:00,
2013-08-17 08:33:00,66.7,66.7,30.14,SE,125,0.0,0.0,100,0.00,,FEW100,0.00,VWS V14.01,2013-08-17 13:33:00,
2013-08-17 08:34:00,67.1,67.1,30.14,SE,125,0.0,0.0,100,0.00,,FEW100,0.00,VWS V14.01,2013-08-17 13:34:00,
2013-08-17 08:35:00,67.1,67.1,30.14,SE,125,0.0,0.0,100,0.00,,FEW100,0.00,VWS V14.01,2013-08-17 13:35:00,
2013-08-17 08:38:00,67.6,67.6,30.14,SE,125,0.0,0.0,100,0.00,,FEW100,0.00,VWS V14.01,2013-08-17 13:38:00,
2013-08-17 08:40:00,68.2,68.2,30.14,SE,125,0.0,0.0,100,0.00,,FEW100,0.00,VWS V14.01,2013-08-17 13:40:00,
2013-08-17 08:41:00,68.5,68.5,30.14,SE,125,0.0,0.0,100,0.00,,FEW100,0.00,VWS V14.01,2013-08-17 13:41:00,
2013-08-17 08:43:00,68.7,65.7,30.14,SE,125,0.0,0.0,90,0.00,,FEW100,0.00,VWS V14.01,2013-08-17 13:43:00,
2013-08-17 08:44:00,68.9,65.2,30.14,SE,125,0.0,0.0,88,0.00,,FEW100,0.00,VWS V14.01,2013-08-17 13:44:00,
2013-08-17 08:45:00,69.1,64.7,30.14,SE,125,0.0,0.0,86,0.00,,FEW100,0.00,VWS V14.01,2013-08-17 13:45:00,
2013-08-17 08:46:00,69.3,64.9,30.14,SE,125,0.0,0.0,86,0.00,,FEW100,0.00,VWS V14.01,2013-08-17 13:46:00,
2013-08-17 08:48:00,69.6,65.2,30.14,SE,125,0.0,0.0,86,0.00,,FEW100,0.00,VWS V14.01,2013-08-17 13:48:00,
2013-08-17 08:50:00,70.0,64.9,30.14,SE,125,0.0,0.0,84,0.00,,FEW100,0.00,VWS V14.01,2013-08-17 13:50:00,
2013-08-17 08:51:00,70.2,65.1,30.14,SE,125,0.0,0.0,84,0.00,,FEW100,0.00,VWS V14.01,2013-08-17 13:51:00,
2013-08-17 08:52:00,70.3,65.3,30.14,SE,125,0.0,0.0,84,0.00,,FEW100,0.00,VWS V14.01,2013-08-17 13:52:00,
2013-08-17 08:55:00,70.7,62.8,30.14,SE,125,0.0,0.0,76,0.00,,FEW100,0.00,VWS V14.01,2013-08-17 13:55:00,
2013-08-17 08:56:00,70.9,62.2,30.14,SE,125,0.0,0.0,74,0.00,,FEW100,0.00,VWS V14.01,2013-08-17 13:56:00,
2013-08-17 08:57:00,71.1,62.4,30.14,SE,125,0.0,0.0,74,0.00,,FEW100,0.00,VWS V14.01,2013-08-17 13:57:00,
2013-08-17 09:00:00,71.2,56.7,30.14,SE,125,0.0,0.0,60,0.00,,FEW100,0.00,VWS V14.01,2013-08-17 14:00:00,
2013-08-17 09:01:00,71.6,57.9,30.14,SE,125,0.0,0.0,62,0.00,,FEW100,0.00,VWS V14.01,2013-08-17 14:01:00,
2013-08-17 09:02:00,71.6,57.9,30.14,SE,125,0.0,0.0,62,0.00,,FEW100,0.00,VWS V14.01,2013-08-17 14:02:00,
2013-08-17 09:06:00,72.3,56.7,30.14,SE,125,0.0,0.0,58,0.00,,FEW100,0.00,VWS V14.01,2013-08-17 14:06:00,
2013-08-17 09:07:00,72.5,53.9,30.14,SE,125,0.0,0.0,52,0.00,,FEW100,0.00,VWS V14.01,2013-08-17 14:07:00,
2013-08-17 09:08:00,72.5,51.7,30.14,SE,125,0.0,0.0,48,0.00,,FEW100,0.00,VWS V14.01,2013-08-17 14:08:00,
2013-08-17 09:12:00,73.0,49.9,30.14,NE,50,0.0,0.0,44,0.00,,FEW100,0.00,VWS V14.01,2013-08-17 14:12:00,
2013-08-17 09:13:00,73.2,50.0,30.14,ENE,78,0.0,3.1,44,0.00,,FEW100,0.00,VWS V14.01,2013-08-17 14:13:00,
2013-08-17 09:14:00,73.4,44.8,30.14,ENE,78,0.0,0.0,36,0.00,,FEW100,0.00,VWS V14.01,2013-08-17 14:14:00,
2013-08-17 09:15:00,73.6,45.0,30.14,ENE,78,0.0,0.0,36,0.00,,FEW100,0.00,VWS V14.01,2013-08-17 14:15:00,
2013-08-17 09:17:00,73.8,42.1,30.14,NE,53,0.0,0.0,32,0.00,,FEW100,0.00,VWS V14.01,2013-08-17 14:17:00,
2013-08-17 09:18:00,73.9,45.3,30.14,NE,53,0.0,0.0,36,0.00,,FEW100,0.00,VWS V14.01,2013-08-17 14:18:00,
2013-08-17 09:19:00,74.1,45.5,30.14,NE,53,0.0,0.0,36,0.00,,FEW100,0.00,VWS V14.01,2013-08-17 14:19:00,
2013-08-17 09:20:00,74.1,42.4,30.14,ESE,105,0.0,0.0,32,0.00,,FEW100,0.00,VWS V14.01,2013-08-17 14:20:00,
2013-08-17 09:23:00,74.5,42.7,30.14,East,100,0.0,0.0,32,0.00,,FEW100,0.00,VWS V14.01,2013-08-17 14:23:00,
2013-08-17 09:24:00,74.7,42.9,30.14,East,85,3.6,3.6,32,0.00,,FEW100,0.00,VWS V14.01,2013-08-17 14:24:00,
2013-08-17 09:25:00,74.7,42.9,30.14,East,81,2.2,2.7,32,0.00,,FEW100,0.00,VWS V14.01,2013-08-17 14:25:00,
2013-08-17 09:26:00,74.8,37.7,30.14,East,81,0.0,0.0,26,0.00,,FEW100,0.00,VWS V14.01,2013-08-17 14:26:00,
2013-08-17 09:28:00,75.0,37.8,30.14,East,81,0.0,0.0,26,0.00,,FEW100,0.00,VWS V14.01,2013-08-17 14:28:00,
2013-08-17 09:29:00,75.0,37.8,30.14,East,81,0.0,0.0,26,0.00,,FEW100,0.00,VWS V14.01,2013-08-17 14:29:00,
2013-08-17 09:30:00,75.0,37.8,30.14,East,81,0.0,0.0,26,0.00,,FEW100,0.00,VWS V14.01,2013-08-17 14:30:00,
2013-08-17 09:31:00,75.2,38.0,30.14,East,81,0.0,0.0,26,0.00,,FEW100,0.00,VWS V14.01,2013-08-17 14:31:00,
2013-08-17 09:35:00,75.6,38.3,30.14,ENE,76,0.0,2.2,26,0.00,,FEW100,0.00,VWS V14.01,2013-08-17 14:35:00,
2013-08-17 09:36:00,75.7,38.5,30.14,ENE,76,0.0,0.0,26,0.00,,FEW100,0.00,VWS V14.01,2013-08-17 14:36:00,
2013-08-17 09:38:00,75.7,38.5,30.14,ENE,75,0.0,0.0,26,0.00,,FEW100,0.00,VWS V14.01,2013-08-17 14:38:00,
2013-08-17 09:40:00,75.9,38.6,30.14,East,79,2.2,3.6,26,0.00,,FEW100,0.00,VWS V14.01,2013-08-17 14:40:00,
2013-08-17 09:41:00,76.1,38.8,30.14,East,79,0.0,2.2,26,0.00,,FEW100,0.00,VWS V14.01,2013-08-17 14:41:00,
2013-08-17 09:42:00,76.1,38.8,30.14,East,79,0.0,0.0,26,0.00,,FEW100,0.00,VWS V14.01,2013-08-17 14:42:00,
2013-08-17 09:43:00,75.9,38.6,30.14,East,91,0.0,0.0,26,0.00,,FEW100,0.00,VWS V14.01,2013-08-17 14:43:00,
2013-08-17 09:46:00,75.9,38.6,30.14,ESE,103,0.0,0.0,26,0.00,,FEW100,0.00,VWS V14.01,2013-08-17 14:46:00,
2013-08-17 09:48:00,75.9,38.6,30.14,ESE,118,0.0,0.0,26,0.00,,FEW100,0.00,VWS V14.01,2013-08-17 14:48:00,
2013-08-17 09:49:00,75.9,38.6,30.14,ESE,118,0.0,0.0,26,0.00,,FEW100,0.00,VWS V14.01,2013-08-17 14:49:00,
2013-08-17 09:50:00,76.1,38.8,30.14,ESE,118,3.6,3.6,26,0.00,,FEW100,0.00,VWS V14.01,2013-08-17 14:50:00,
2013-08-17 09:51:00,76.1,38.8,30.14,ESE,115,0.0,4.0,26,0.00,,FEW100,0.00,VWS V14.01,2013-08-17 14:51:00,
2013-08-17 09:52:00,76.1,38.8,30.14,ESE,110,4.0,4.0,26,0.00,,FEW100,0.00,VWS V14.01,2013-08-17 14:52:00,
2013-08-17 09:54:00,75.9,38.6,30.14,East,94,0.0,0.0,26,0.00,,FEW100,0.00,VWS V14.01,2013-08-17 14:54:00,
2013-08-17 09:55:00,75.9,38.6,30.14,East,94,0.0,0.0,26,0.00,,FEW100,0.00,VWS V14.01,2013-08-17 14:55:00,
2013-08-17 09:56:00,75.9,38.6,30.14,East,94,0.0,0.0,26,0.00,,FEW100,0.00,VWS V14.01,2013-08-17 14:56:00,
2013-08-17 09:57:00,75.7,38.5,30.14,East,94,0.0,0.0,26,0.00,,FEW100,0.00,VWS V14.01,2013-08-17 14:57:00,
2013-08-17 09:59:00,75.9,38.6,30.14,NE,56,2.7,2.7,26,0.00,,FEW100,0.00,VWS V14.01,2013-08-17 14:59:00,
2013-08-17 10:01:00,75.9,38.6,30.14,ENE,61,3.1,5.4,26,0.00,,FEW100,0.00,VWS V14.01,2013-08-17 15:01:00,
2013-08-17 10:02:00,76.1,38.8,30.14,ENE,61,2.7,5.4,26,0.00,,FEW100,0.00,VWS V14.01,2013-08-17 15:02:00,
2013-08-17 10:05:00,76.3,38.9,30.14,ENE,61,0.0,0.0,26,0.00,,FEW100,0.00,VWS V14.01,2013-08-17 15:05:00,
2013-08-17 10:08:00,76.6,39.2,30.14,SE,138,3.6,4.9,26,0.00,,FEW100,0.00,VWS V14.01,2013-08-17 15:08:00,
2013-08-17 10:09:00,76.8,39.4,30.14,SE,137,0.0,0.0,26,0.00,,FEW100,0.00,VWS V14.01,2013-08-17 15:09:00,
2013-08-17 10:10:00,77.2,39.7,30.14,ENE,62,0.0,4.0,26,0.00,,FEW100,0.00,VWS V14.01,2013-08-17 15:10:00,
2013-08-17 10:13:00,77.5,40.0,30.14,East,83,0.0,2.7,26,0.00,,FEW100,0.00,VWS V14.01,2013-08-17 15:13:00,
2013-08-17 10:14:00,77.9,40.3,30.14,East,84,0.0,0.0,26,0.00,,FEW100,0.00,VWS V14.01,2013-08-17 15:14:00,
2013-08-17 10:15:00,77.9,40.3,30.14,East,84,0.0,0.0,26,0.00,,FEW100,0.00,VWS V14.01,2013-08-17 15:15:00,
2013-08-17 10:16:00,77.9,40.3,30.14,SE,138,2.7,3.1,26,0.00,,FEW100,0.00,VWS V14.01,2013-08-17 15:16:00,
2013-08-17 10:17:00,78.3,40.6,30.14,SE,138,0.0,0.0,26,0.00,,FEW100,0.00,VWS V14.01,2013-08-17 15:17:00,
2013-08-17 10:19:00,78.6,40.9,30.14,SE,131,0.0,2.7,26,0.00,,FEW100,0.00,VWS V14.01,2013-08-17 15:19:00,
2013-08-17 10:20:00,78.8,39.0,30.14,ESE,120,2.7,3.1,24,0.00,,FEW100,0.00,VWS V14.01,2013-08-17 15:20:00,
2013-08-17 10:21:00,78.8,39.0,30.14,East,92,4.0,4.0,24,0.00,,FEW100,0.00,VWS V14.01,2013-08-17 15:21:00,
2013-08-17 10:22:00,79.0,39.2,30.14,East,90,0.0,3.6,24,0.00,,FEW100,0.00,VWS V14.01,2013-08-17 15:22:00,
2013-08-17 10:23:00,78.8,39.0,30.14,East,90,0.0,0.0,24,0.00,,FEW100,0.00,VWS V14.01,2013-08-17 15:23:00,
2013-08-17 10:24:00,78.6,40.9,30.14,East,90,0.0,0.0,26,0.00,,FEW100,0.00,VWS V14.01,2013-08-17 15:24:00,
2013-08-17 10:25:00,78.6,40.9,30.14,ESE,113,2.2,2.2,26,0.00,,FEW100,0.00,VWS V14.01,2013-08-17 15:25:00,
2013-08-17 10:26:00,78.6,40.9,30.14,ESE,121,3.1,3.1,26,0.00,,FEW100,0.00,VWS V14.01,2013-08-17 15:26:00,
2013-08-17 10:27:00,78.8,39.0,30.14,ESE,121,0.0,3.1,24,0.00,,FEW100,0.00,VWS V14.01,2013-08-17 15:27:00,
2013-08-17 10:28:00,78.6,40.9,30.14,East,100,0.0,3.6,26,0.00,,FEW100,0.00,VWS V14.01,2013-08-17 15:28:00,
2013-08-17 10:29:00,78.6,40.9,30.14,East,100,0.0,0.0,26,0.00,,FEW100,0.00,VWS V14.01,2013-08-17 15:29:00,
2013-08-17 10:31:00,78.6,40.9,30.14,East,99,0.0,0.0,26,0.00,,FEW100,0.00,VWS V14.01,2013-08-17 15:31:00,
2013-08-17 10:32:00,78.6,40.9,30.14,East,99,0.0,0.0,26,0.00,,FEW100,0.00,VWS V14.01,2013-08-17 15:32:00,
2013-08-17 10:33:00,78.6,40.9,30.14,East,100,2.7,3.1,26,0.00,,FEW100,0.00,VWS V14.01,2013-08-17 15:33:00,
2013-08-17 10:34:00,78.6,40.9,30.14,SSE,149,0.0,2.7,26,0.00,,FEW100,0.00,VWS V14.01,2013-08-17 15:34:00,
2013-08-17 10:37:00,78.6,40.9,30.14,East,85,0.0,2.2,26,0.00,,FEW100,0.00,VWS V14.01,2013-08-17 15:37:00,
2013-08-17 10:39:00,78.6,40.9,30.14,East,85,0.0,0.0,26,0.00,,FEW100,0.00,VWS V14.01,2013-08-17 15:39:00,
2013-08-17 10:40:00,78.6,40.9,30.14,East,91,0.0,4.0,26,0.00,,FEW100,0.00,VWS V14.01,2013-08-17 15:40:00,
2013-08-17 10:42:00,79.0,39.2,30.14,East,87,0.0,0.0,24,0.00,,FEW100,0.00,VWS V14.01,2013-08-17 15:42:00,
2013-08-17 10:45:00,79.2,39.3,30.14,NE,39,0.0,3.6,24,0.00,,FEW100,0.00,VWS V14.01,2013-08-17 15:45:00,
2013-08-17 10:50:00,79.3,39.5,30.14,ENE,65,0.0,2.2,24,0.00,,FEW100,0.00,VWS V14.01,2013-08-17 15:50:00,
2013-08-17 10:51:00,79.3,39.5,30.14,ENE,66,0.0,0.0,24,0.00,,FEW100,0.00,VWS V14.01,2013-08-17 15:51:00,
2013-08-17 10:55:00,79.9,39.9,30.14,South,177,5.8,5.8,24,0.00,,FEW100,0.00,VWS V14.01,2013-08-17 15:55:00,
2013-08-17 10:56:00,79.9,39.9,30.14,ESE,115,3.6,5.8,24,0.00,,FEW100,0.00,VWS V14.01,2013-08-17 15:56:00,
2013-08-17 10:57:00,79.9,39.9,30.14,SE,140,3.1,3.6,24,0.00,,FEW100,0.00,VWS V14.01,2013-08-17 15:57:00,
2013-08-17 11:01:00,79.9,39.9,30.14,ESE,116,3.1,3.1,24,0.00,,FEW100,0.00,VWS V14.01,2013-08-17 16:01:00,
2013-08-17 11:02:00,80.1,40.1,30.14,ESE,111,3.1,3.1,24,0.00,,FEW100,0.00,VWS V14.01,2013-08-17 16:02:00,
2013-08-17 11:06:00,80.2,40.2,30.14,East,79,3.6,3.6,24,0.00,,FEW100,0.00,VWS V14.01,2013-08-17 16:06:00,
2013-08-17 11:07:00,80.2,40.2,30.14,East,79,3.1,3.6,24,0.00,,FEW100,0.00,VWS V14.01,2013-08-17 16:07:00,
2013-08-17 11:10:00,80.4,40.4,30.14,SE,131,3.1,3.6,24,0.00,,FEW100,0.00,VWS V14.01,2013-08-17 16:10:00,
2013-08-17 11:12:00,80.6,40.5,30.14,NE,50,0.0,3.6,24,0.00,,FEW100,0.00,VWS V14.01,2013-08-17 16:12:00,
2013-08-17 11:13:00,80.8,40.7,30.14,NE,52,0.0,2.2,24,0.00,,FEW100,0.00,VWS V14.01,2013-08-17 16:13:00,
2013-08-17 11:16:00,80.8,40.7,30.14,SSE,147,0.0,0.0,24,0.00,,FEW100,0.00,VWS V14.01,2013-08-17 16:16:00,
2013-08-17 11:17:00,80.8,40.7,30.14,NE,45,4.9,4.9,24,0.00,,FEW100,0.00,VWS V14.01,2013-08-17 16:17:00,
2013-08-17 11:18:00,80.8,40.7,30.14,NE,45,0.0,0.0,24,0.00,,FEW100,0.00,VWS V14.01,2013-08-17 16:18:00,
2013-08-17 11:19:00,80.8,40.7,30.14,NE,47,0.0,0.0,24,0.00,,FEW100,0.00,VWS V14.01,2013-08-17 16:19:00,
2013-08-17 11:21:00,81.0,40.8,30.14,SE,146,4.0,4.0,24,0.00,,FEW100,0.00,VWS V14.01,2013-08-17 16:21:00,
2013-08-17 11:23:00,81.1,41.0,30.14,SE,138,2.2,2.2,24,0.00,,FEW100,0.00,VWS V14.01,2013-08-17 16:23:00,
2013-08-17 11:24:00,81.1,41.0,30.14,SE,138,2.7,2.7,24,0.00,,FEW100,0.00,VWS V14.01,2013-08-17 16:24:00,
2013-08-17 11:25:00,81.1,41.0,30.14,ESE,114,0.0,3.6,24,0.00,,FEW100,0.00,VWS V14.01,2013-08-17 16:25:00,
2013-08-17 11:27:00,81.3,41.1,30.11,East,87,3.6,3.6,24,0.00,,FEW100,0.00,VWS V14.01,2013-08-17 16:27:00,
2013-08-17 11:28:00,81.3,41.1,30.11,East,87,0.0,0.0,24,0.00,,FEW100,0.00,VWS V14.01,2013-08-17 16:28:00,
2013-08-17 11:29:00,81.5,41.3,30.11,East,87,0.0,0.0,24,0.00,,FEW100,0.00,VWS V14.01,2013-08-17 16:29:00,
2013-08-17 11:30:00,81.7,41.4,30.11,East,86,0.0,0.0,24,0.00,,FEW100,0.00,VWS V14.01,2013-08-17 16:30:00,
2013-08-17 11:31:00,81.7,41.4,30.11,East,84,0.0,0.0,24,0.00,,FEW100,0.00,VWS V14.01,2013-08-17 16:31:00,
2013-08-17 11:32:00,82.0,41.7,30.11,SE,146,0.0,4.0,24,0.00,,FEW100,0.00,VWS V14.01,2013-08-17 16:32:00,
2013-08-17 11:34:00,82.0,41.7,30.11,North,5,3.1,3.1,24,0.00,,FEW100,0.00,VWS V14.01,2013-08-17 16:34:00,
2013-08-17 11:35:00,82.0,41.7,30.11,NNE,12,6.3,6.3,24,0.00,,FEW100,0.00,VWS V14.01,2013-08-17 16:35:00,
2013-08-17 11:36:00,81.9,41.6,30.11,NNE,17,3.6,3.6,24,0.00,,FEW100,0.00,VWS V14.01,2013-08-17 16:36:00,
2013-08-17 11:37:00,81.7,41.4,30.11,ENE,63,3.1,3.1,24,0.00,,FEW100,0.00,VWS V14.01,2013-08-17 16:37:00,
2013-08-17 11:39:00,81.7,41.4,30.11,NE,56,3.1,3.1,24,0.00,,FEW100,0.00,VWS V14.01,2013-08-17 16:39:00,
2013-08-17 11:41:00,81.7,41.4,30.11,ENE,63,4.9,4.9,24,0.00,,FEW100,0.00,VWS V14.01,2013-08-17 16:41:00,
2013-08-17 11:42:00,81.7,41.4,30.11,SE,137,0.0,4.9,24,0.00,,FEW100,0.00,VWS V14.01,2013-08-17 16:42:00,
2013-08-17 11:43:00,81.9,41.6,30.11,ENE,58,0.0,4.5,24,0.00,,FEW100,0.00,VWS V14.01,2013-08-17 16:43:00,
2013-08-17 11:45:00,82.2,41.9,30.11,ESE,109,3.6,5.8,24,0.00,,FEW100,0.00,VWS V14.01,2013-08-17 16:45:00,
2013-08-17 11:46:00,82.2,41.9,30.11,SE,144,3.6,4.0,24,0.00,,FEW100,0.00,VWS V14.01,2013-08-17 16:46:00,
2013-08-17 11:47:00,82.4,39.8,30.11,SSE,151,3.6,5.4,22,0.00,,FEW100,0.00,VWS V14.01,2013-08-17 16:47:00,
2013-08-17 11:48:00,82.4,39.8,30.11,SSE,152,0.0,0.0,22,0.00,,FEW100,0.00,VWS V14.01,2013-08-17 16:48:00,
2013-08-17 11:50:00,82.6,39.9,30.11,ENE,74,3.1,4.0,22,0.00,,FEW100,0.00,VWS V14.01,2013-08-17 16:50:00,
2013-08-17 11:51:00,82.6,39.9,30.11,NNE,30,3.1,4.0,22,0.00,,FEW100,0.00,VWS V14.01,2013-08-17 16:51:00,
2013-08-17 11:52:00,82.6,39.9,30.11,SSW,193,3.6,4.0,22,0.00,,FEW100,0.00,VWS V14.01,2013-08-17 16:52:00,
2013-08-17 11:54:00,82.4,39.8,30.11,East,81,5.8,5.8,22,0.00,,FEW100,0.00,VWS V14.01,2013-08-17 16:54:00,
2013-08-17 11:56:00,82.4,39.8,30.11,East,81,0.0,0.0,22,0.00,,FEW100,0.00,VWS V14.01,2013-08-17 16:56:00,
2013-08-17 11:57:00,82.4,39.8,30.11,NE,55,0.0,2.7,22,0.00,,FEW100,0.00,VWS V14.01,2013-08-17 16:57:00,
2013-08-17 11:58:00,82.4,39.8,30.11,ENE,72,0.0,0.0,22,0.00,,FEW100,0.00,VWS V14.01,2013-08-17 16:58:00,
2013-08-17 12:00:00,82.4,39.8,30.11,North,10,5.4,5.4,22,0.00,,FEW100,0.00,VWS V14.01,2013-08-17 17:00:00,
2013-08-17 12:02:00,82.2,41.9,30.11,NNE,33,0.0,0.0,24,0.00,,FEW100,0.00,VWS V14.01,2013-08-17 17:02:00,
2013-08-17 12:04:00,82.2,41.9,30.11,NNE,23,3.6,4.0,24,0.00,,FEW100,0.00,VWS V14.01,2013-08-17 17:04:00,
2013-08-17 12:05:00,82.2,41.9,30.11,East,88,4.0,4.0,24,0.00,,FEW100,0.00,VWS V14.01,2013-08-17 17:05:00,
2013-08-17 12:06:00,82.4,39.8,30.11,East,83,5.8,5.8,22,0.00,,FEW100,0.00,VWS V14.01,2013-08-17 17:06:00,
2013-08-17 12:07:00,82.6,39.9,30.11,ENE,72,3.1,4.0,22,0.00,,FEW100,0.00,VWS V14.01,2013-08-17 17:07:00,
2013-08-17 12:09:00,83.1,40.4,30.11,ENE,72,0.0,0.0,22,0.00,,FEW100,0.00,VWS V14.01,2013-08-17 17:09:00,
2013-08-17 12:10:00,83.1,40.4,30.11,NE,52,3.1,6.3,22,0.00,,FEW100,0.00,VWS V14.01,2013-08-17 17:10:00,
2013-08-17 12:12:00,83.1,40.4,30.11,NE,40,3.6,3.6,22,0.00,,FEW100,0.00,VWS V14.01,2013-08-17 17:12:00,
2013-08-17 12:13:00,82.9,40.2,30.11,ESE,107,4.0,5.4,22,0.00,,FEW100,0.00,VWS V14.01,2013-08-17 17:13:00,
2013-08-17 12:14:00,82.9,40.2,30.11,ESE,109,0.0,2.7,22,0.00,,FEW100,0.00,VWS V14.01,2013-08-17 17:14:00,
2013-08-17 12:16:00,82.9,40.2,30.11,NE,39,0.0,4.9,22,0.00,,FEW100,0.00,VWS V14.01,2013-08-17 17:16:00,
2013-08-17 12:17:00,82.6,39.9,30.11,East,81,4.0,5.4,22,0.00,,FEW100,0.00,VWS V14.01,2013-08-17 17:17:00,
2013-08-17 12:19:00,82.4,34.7,30.11,NE,40,5.4,7.2,18,0.00,,FEW100,0.00,VWS V14.01,2013-08-17 17:19:00,
2013-08-17 12:21:00,82.2,41.9,30.11,NE,35,0.0,3.1,24,0.00,,FEW100,0.00,VWS V14.01,2013-08-17 17:21:00,
2013-08-17 12:23:00,82.4,39.8,30.11,NE,38,3.6,3.6,22,0.00,,FEW100,0.00,VWS V14.01,2013-08-17 17:23:00,
2013-08-17 12:24:00,82.6,39.9,30.11,NE,38,2.2,3.6,22,0.00,,FEW100,0.00,VWS V14.01,2013-08-17 17:24:00,
2013-08-17 12:26:00,82.9,40.2,30.11,East,101,0.0,4.0,22,0.00,,FEW100,0.00,VWS V14.01,2013-08-17 17:26:00,
2013-08-17 12:29:00,83.5,40.7,30.11,East,98,0.0,3.6,22,0.00,,FEW100,0.00,VWS V14.01,2013-08-17 17:29:00,
2013-08-17 12:30:00,83.7,40.8,30.11,East,81,2.7,4.9,22,0.00,,FEW100,0.00,VWS V14.01,2013-08-17 17:30:00,
2013-08-17 12:31:00,83.8,41.0,30.11,SSE,152,5.8,5.8,22,0.00,,FEW100,0.00,VWS V14.01,2013-08-17 17:31:00,
2013-08-17 12:32:00,84.2,41.3,30.11,SSE,156,3.1,5.8,22,0.00,,FEW100,0.00,VWS V14.01,2013-08-17 17:32:00,
2013-08-17 12:34:00,84.6,41.6,30.11,SSE,149,2.2,2.2,22,0.00,,FEW100,0.00,VWS V14.01,2013-08-17 17:34:00,
2013-08-17 12:35:00,84.6,41.6,30.11,ENE,72,4.0,4.0,22,0.00,,FEW100,0.00,VWS V14.01,2013-08-17 17:35:00,
2013-08-17 12:37:00,84.6,41.6,30.11,NNE,24,5.8,5.8,22,0.00,,FEW100,0.00,VWS V14.01,2013-08-17 17:37:00,
2013-08-17 12:38:00,84.6,41.6,30.11,NNE,27,7.6,7.6,22,0.00,,FEW100,0.00,VWS V14.01,2013-08-17 17:38:00,
2013-08-17 12:39:00,84.2,41.3,30.11,NE,54,2.7,3.6,22,0.00,,FEW100,0.00,VWS V14.01,2013-08-17 17:39:00,
2013-08-17 12:40:00,84.2,41.3,30.11,ENE,60,3.1,4.9,22,0.00,,FEW100,0.00,VWS V14.01,2013-08-17 17:40:00,
2013-08-17 12:42:00,84.2,41.3,30.08,ENE,71,0.0,4.0,22,0.00,,FEW100,0.00,VWS V14.01,2013-08-17 17:42:00,
2013-08-17 12:44:00,84.2,41.3,30.08,ENE,65,2.7,6.3,22,0.00,,FEW100,0.00,VWS V14.01,2013-08-17 17:44:00,
2013-08-17 12:45:00,84.7,41.7,30.08,SE,144,3.6,3.6,22,0.00,,FEW100,0.00,VWS V14.01,2013-08-17 17:45:00,
2013-08-17 12:46:00,84.7,41.7,30.08,East,93,3.1,3.6,22,0.00,,FEW100,0.00,VWS V14.01,2013-08-17 17:46:00,
2013-08-17 12:47:00,84.9,41.9,30.08,ESE,108,4.0,4.0,22,0.00,,FEW100,0.00,VWS V14.01,2013-08-17 17:47:00,
2013-08-17 12:49:00,84.9,41.9,30.08,NNE,25,0.0,4.0,22,0.00,,FEW100,0.00,VWS V14.01,2013-08-17 17:49:00,
2013-08-17 12:51:00,84.4,41.4,30.08,South,173,0.0,2.7,22,0.00,,FEW100,0.00,VWS V14.01,2013-08-17 17:51:00,
2013-08-17 12:52:00,84.4,41.4,30.08,SSE,153,0.0,0.0,22,0.00,,FEW100,0.00,VWS V14.01,2013-08-17 17:52:00,
2013-08-17 12:53:00,84.6,41.6,30.08,SE,142,0.0,0.0,22,0.00,,FEW100,0.00,VWS V14.01,2013-08-17 17:53:00,
2013-08-17 12:54:00,84.2,41.3,30.08,North,10,2.7,4.0,22,0.00,,FEW100,0.00,VWS V14.01,2013-08-17 17:54:00,
2013-08-17 12:55:00,83.7,40.8,30.08,North,10,2.7,4.0,22,0.00,,FEW100,0.00,VWS V14.01,2013-08-17 17:55:00,
2013-08-17 12:56:00,83.3,35.4,30.08,NE,34,0.0,0.0,18,0.00,,FEW100,0.00,VWS V14.01,2013-08-17 17:56:00,
2013-08-17 12:57:00,83.5,35.6,30.08,NE,36,0.0,0.0,18,0.00,,FEW100,0.00,VWS V14.01,2013-08-17 17:57:00,
2013-08-17 12:58:00,83.5,35.6,30.08,NE,38,0.0,0.0,18,0.00,,FEW100,0.00,VWS V14.01,2013-08-17 17:58:00,
2013-08-17 13:01:00,83.8,41.0,30.08,ENE,78,0.0,2.7,22,0.00,,FEW100,0.00,VWS V14.01,2013-08-17 18:01:00,
2013-08-17 13:02:00,84.0,41.1,30.08,East,79,0.0,0.0,22,0.00,,FEW100,0.00,VWS V14.01,2013-08-17 18:02:00,
2013-08-17 13:03:00,84.4,41.4,30.08,East,82,0.0,3.6,22,0.00,,FEW100,0.00,VWS V14.01,2013-08-17 18:03:00,
2013-08-17 13:04:00,84.7,41.7,30.08,NE,38,4.0,4.0,22,0.00,,FEW100,0.00,VWS V14.01,2013-08-17 18:04:00,
2013-08-17 13:06:00,84.9,41.9,30.08,ENE,78,2.2,3.6,22,0.00,,FEW100,0.00,VWS V14.01,2013-08-17 18:06:00,
2013-08-17 13:07:00,85.1,42.0,30.08,SE,138,3.1,4.5,22,0.00,,FEW100,0.00,VWS V14.01,2013-08-17 18:07:00,
2013-08-17 13:08:00,85.5,42.3,30.08,ESE,121,0.0,2.7,22,0.00,,FEW100,0.00,VWS V14.01,2013-08-17 18:08:00,
2013-08-17 13:10:00,85.6,42.5,30.08,East,84,3.1,4.0,22,0.00,,FEW100,0.00,VWS V14.01,2013-08-17 18:10:00,
2013-08-17 13:11:00,85.6,42.5,30.08,East,90,6.3,6.3,22,0.00,,FEW100,0.00,VWS V14.01,2013-08-17 18:11:00,
2013-08-17 13:12:00,85.6,42.5,30.08,East,90,2.7,6.3,22,0.00,,FEW100,0.00,VWS V14.01,2013-08-17 18:12:00,
2013-08-17 13:13:00,85.8,42.6,30.08,NNE,33,2.7,2.7,22,0.00,,FEW100,0.00,VWS V14.01,2013-08-17 18:13:00,
2013-08-17 13:16:00,86.2,42.9,30.08,North,7,4.0,4.0,22,0.00,,FEW100,0.00,VWS V14.01,2013-08-17 18:16:00,
2013-08-17 13:17:00,86.2,42.9,30.08,North,7,0.0,4.0,22,0.00,,FEW100,0.00,VWS V14.01,2013-08-17 18:17:00,
2013-08-17 13:18:00,86.4,43.1,30.08,East,97,2.2,3.1,22,0.00,,FEW100,0.00,VWS V14.01,2013-08-17 18:18:00,
2013-08-17 13:19:00,86.4,43.1,30.08,ESE,102,6.3,6.3,22,0.00,,FEW100,0.00,VWS V14.01,2013-08-17 18:19:00,
2013-08-17 13:22:00,85.8,42.6,30.08,East,83,4.9,4.9,22,0.00,,FEW100,0.00,VWS V14.01,2013-08-17 18:22:00,
2013-08-17 13:23:00,85.5,42.3,30.08,East,84,4.0,4.0,22,0.00,,FEW100,0.00,VWS V14.01,2013-08-17 18:23:00,
2013-08-17 13:24:00,84.7,41.7,30.08,East,85,0.0,0.0,22,0.00,,FEW100,0.00,VWS V14.01,2013-08-17 18:24:00,
2013-08-17 13:25:00,84.0,41.1,30.08,East,85,0.0,0.0,22,0.00,,FEW100,0.00,VWS V14.01,2013-08-17 18:25:00,
2013-08-17 13:27:00,83.5,35.6,30.08,NE,39,5.8,5.8,18,0.00,,FEW100,0.00,VWS V14.01,2013-08-17 18:27:00,
2013-08-17 13:28:00,83.1,35.3,30.08,NE,39,8.1,8.1,18,0.00,,FEW100,0.00,VWS V14.01,2013-08-17 18:28:00,
2013-08-17 13:30:00,82.4,34.7,30.08,NE,48,2.7,2.7,18,0.00,,FEW100,0.00,VWS V14.01,2013-08-17 18:30:00,
2013-08-17 13:31:00,82.4,34.7,30.08,NNE,28,5.8,5.8,18,0.00,,FEW100,0.00,VWS V14.01,2013-08-17 18:31:00,
2013-08-17 13:33:00,82.9,40.2,30.08,ESE,120,3.6,5.4,22,0.00,,FEW100,0.00,VWS V14.01,2013-08-17 18:33:00,
2013-08-17 13:35:00,83.8,41.0,30.08,NW,305,0.0,0.0,22,0.00,,FEW100,0.00,VWS V14.01,2013-08-17 18:35:00,
2013-08-17 13:36:00,84.2,41.3,30.08,NW,305,0.0,0.0,22,0.00,,FEW100,0.00,VWS V14.01,2013-08-17 18:36:00,
2013-08-17 13:37:00,84.7,41.7,30.08,East,79,4.0,4.0,22,0.00,,FEW100,0.00,VWS V14.01,2013-08-17 18:37:00,
2013-08-17 13:38:00,84.7,41.7,30.08,East,86,4.0,4.0,22,0.00,,FEW100,0.00,VWS V14.01,2013-08-17 18:38:00,
2013-08-17 13:40:00,84.7,41.7,30.08,East,84,2.2,2.2,22,0.00,,FEW100,0.00,VWS V14.01,2013-08-17 18:40:00,
2013-08-17 13:41:00,84.9,41.9,30.08,NNE,32,3.1,3.6,22,0.00,,FEW100,0.00,VWS V14.01,2013-08-17 18:41:00,
2013-08-17 13:42:00,85.1,42.0,30.08,NNE,32,0.0,3.1,22,0.00,,FEW100,0.00,VWS V14.01,2013-08-17 18:42:00,
2013-08-17 13:44:00,85.1,42.0,30.08,ENE,74,3.6,3.6,22,0.00,,FEW100,0.00,VWS V14.01,2013-08-17 18:44:00,
2013-08-17 13:45:00,85.3,42.2,30.08,East,96,2.2,2.7,22,0.00,,FEW100,0.00,VWS V14.01,2013-08-17 18:45:00,
2013-08-17 13:46:00,85.5,42.3,30.08,SSE,159,2.7,4.0,22,0.00,,FEW100,0.00,VWS V14.01,2013-08-17 18:46:00,
2013-08-17 13:47:00,85.5,42.3,30.08,SSE,149,2.2,2.2,22,0.00,,FEW100,0.00,VWS V14.01,2013-08-17 18:47:00,
2013-08-17 13:49:00,85.6,42.5,30.08,ENE,75,0.0,3.1,22,0.00,,FEW100,0.00,VWS V14.01,2013-08-17 18:49:00,
2013-08-17 13:50:00,85.6,42.5,30.08,ENE,77,0.0,2.2,22,0.00,,FEW100,0.00,VWS V14.01,2013-08-17 18:50:00,
2013-08-17 13:51:00,85.6,42.5,30.08,East,88,0.0,3.1,22,0.00,,FEW100,0.00,VWS V14.01,2013-08-17 18:51:00,
2013-08-17 13:52:00,85.6,42.5,30.08,ESE,102,0.0,5.4,22,0.00,,FEW100,0.00,VWS V14.01,2013-08-17 18:52:00,
2013-08-17 13:54:00,86.0,42.8,30.08,NE,47,0.0,3.1,22,0.00,,FEW100,0.00,VWS V14.01,2013-08-17 18:54:00,
2013-08-17 13:56:00,86.4,43.1,30.08,ENE,73,0.0,4.0,22,0.00,,FEW100,0.00,VWS V14.01,2013-08-17 18:56:00,
2013-08-17 13:57:00,86.5,43.2,30.08,ENE,77,5.4,5.4,22,0.00,,FEW100,0.00,VWS V14.01,2013-08-17 18:57:00,
2013-08-17 13:58:00,86.5,43.2,30.08,East,79,0.0,0.0,22,0.00,,FEW100,0.00,VWS V14.01,2013-08-17 18:58:00,
2013-08-17 13:59:00,86.5,43.2,30.08,East,90,0.0,0.0,22,0.00,,FEW100,0.00,VWS V14.01,2013-08-17 18:59:00,
2013-08-17 14:01:00,86.7,43.4,30.08,ENE,76,3.6,3.6,22,0.00,,FEW100,0.00,VWS V14.01,2013-08-17 19:01:00,
2013-08-17 14:02:00,86.9,43.5,30.08,SE,143,3.6,3.6,22,0.00,,FEW100,0.00,VWS V14.01,2013-08-17 19:02:00,
2013-08-17 14:03:00,86.7,43.4,30.08,ESE,122,0.0,3.6,22,0.00,,FEW100,0.00,VWS V14.01,2013-08-17 19:03:00,
2013-08-17 14:05:00,86.7,43.4,30.08,NE,45,2.7,2.7,22,0.00,,FEW100,0.00,VWS V14.01,2013-08-17 19:05:00,
2013-08-17 14:07:00,86.7,43.4,30.08,NE,54,5.4,5.4,22,0.00,,FEW100,0.00,VWS V14.01,2013-08-17 19:07:00,
2013-08-17 14:09:00,86.7,43.4,30.08,NE,39,0.0,0.0,22,0.00,,FEW100,0.00,VWS V14.01,2013-08-17 19:09:00,
2013-08-17 14:10:00,86.7,43.4,30.08,East,82,0.0,0.0,22,0.00,,FEW100,0.00,VWS V14.01,2013-08-17 19:10:00,
2013-08-17 14:12:00,86.5,43.2,30.08,East,86,0.0,3.1,22,0.00,,FEW100,0.00,VWS V14.01,2013-08-17 19:12:00,
2013-08-17 14:14:00,86.5,43.2,30.08,East,84,0.0,2.7,22,0.00,,FEW100,0.00,VWS V14.01,2013-08-17 19:14:00,
2013-08-17 14:16:00,86.4,43.1,30.08,South,172,2.7,4.0,22,0.00,,FEW100,0.00,VWS V14.01,2013-08-17 19:16:00,
2013-08-17 14:17:00,86.4,43.1,30.08,South,191,5.4,5.4,22,0.00,,FEW100,0.00,VWS V14.01,2013-08-17 19:17:00,
2013-08-17 14:18:00,86.2,42.9,30.08,SSW,193,2.7,5.8,22,0.00,,FEW100,0.00,VWS V14.01,2013-08-17 19:18:00,
2013-08-17 14:19:00,86.0,42.8,30.08,NE,41,6.3,7.6,22,0.00,,FEW100,0.00,VWS V14.01,2013-08-17 19:19:00,
2013-08-17 14:20:00,85.8,42.6,30.08,ENE,70,2.7,2.7,22,0.00,,FEW100,0.00,VWS V14.01,2013-08-17 19:20:00,
2013-08-17 14:22:00,85.6,42.5,30.08,ENE,75,0.0,5.4,22,0.00,,FEW100,0.00,VWS V14.01,2013-08-17 19:22:00,
2013-08-17 14:23:00,85.3,42.2,30.08,East,88,2.7,5.4,22,0.00,,FEW100,0.00,VWS V14.01,2013-08-17 19:23:00,
2013-08-17 14:24:00,84.9,41.9,30.08,ESE,117,3.1,5.4,22,0.00,,FEW100,0.00,VWS V14.01,2013-08-17 19:24:00,
2013-08-17 14:25:00,84.4,33.3,30.08,East,96,2.2,2.2,16,0.00,,FEW100,0.00,VWS V14.01,2013-08-17 19:25:00,
2013-08-17 14:27:00,84.4,41.4,30.08,East,83,0.0,4.9,22,0.00,,FEW100,0.00,VWS V14.01,2013-08-17 19:27:00,
2013-08-17 14:28:00,84.4,33.3,30.08,ENE,78,0.0,2.7,16,0.00,,FEW100,0.00,VWS V14.01,2013-08-17 19:28:00,
2013-08-17 14:30:00,84.6,41.6,30.08,ESE,119,3.1,3.1,22,0.00,,FEW100,0.00,VWS V14.01,2013-08-17 19:30:00,
2013-08-17 14:31:00,84.7,33.6,30.08,NNW,336,2.7,3.1,16,0.00,,FEW100,0.00,VWS V14.01,2013-08-17 19:31:00,
2013-08-17 14:32:00,84.7,33.6,30.08,NNE,33,2.7,3.1,16,0.00,,FEW100,0.00,VWS V14.01,2013-08-17 19:32:00,
2013-08-17 14:33:00,84.7,41.7,30.08,NE,34,0.0,0.0,22,0.00,,FEW100,0.00,VWS V14.01,2013-08-17 19:33:00,
2013-08-17 14:34:00,84.7,33.6,30.08,NE,34,0.0,0.0,16,0.00,,FEW100,0.00,VWS V14.01,2013-08-17 19:34:00,
2013-08-17 14:35:00,84.9,41.9,30.08,NE,34,0.0,3.6,22,0.00,,FEW100,0.00,VWS V14.01,2013-08-17 19:35:00,
2013-08-17 14:37:00,85.1,42.0,30.08,ENE,57,3.1,3.1,22,0.00,,FEW100,0.00,VWS V14.01,2013-08-17 19:37:00,
2013-08-17 14:39:00,84.4,41.4,30.08,NE,54,2.7,2.7,22,0.00,,FEW100,0.00,VWS V14.01,2013-08-17 19:39:00,
2013-08-17 14:40:00,83.8,35.8,30.08,East,95,0.0,2.2,18,0.00,,FEW100,0.00,VWS V14.01,2013-08-17 19:40:00,
2013-08-17 14:42:00,83.8,35.8,30.05,East,95,0.0,0.0,18,0.00,,FEW100,0.00,VWS V14.01,2013-08-17 19:42:00,
2013-08-17 14:43:00,83.8,35.8,30.05,NE,39,3.1,3.1,18,0.00,,FEW100,0.00,VWS V14.01,2013-08-17 19:43:00,
2013-08-17 14:44:00,84.2,33.2,30.05,ENE,67,0.0,0.0,16,0.00,,FEW100,0.00,VWS V14.01,2013-08-17 19:44:00,
2013-08-17 14:45:00,84.4,41.4,30.05,ENE,66,0.0,0.0,22,0.00,,FEW100,0.00,VWS V14.01,2013-08-17 19:45:00,
2013-08-17 14:46:00,84.4,41.4,30.05,East,94,3.1,3.6,22,0.00,,FEW100,0.00,VWS V14.01,2013-08-17 19:46:00,
2013-08-17 14:47:00,85.1,42.0,30.05,East,93,0.0,3.1,22,0.00,,FEW100,0.00,VWS V14.01,2013-08-17 19:47:00,
2013-08-17 14:48:00,85.3,42.2,30.05,East,86,0.0,3.6,22,0.00,,FEW100,0.00,VWS V14.01,2013-08-17 19:48:00,
2013-08-17 14:49:00,85.6,42.5,30.05,East,89,2.7,3.6,22,0.00,,FEW100,0.00,VWS V14.01,2013-08-17 19:49:00,
2013-08-17 14:50:00,85.8,42.6,30.05,ESE,109,2.7,5.4,22,0.00,,FEW100,0.00,VWS V14.01,2013-08-17 19:50:00,
2013-08-17 14:52:00,86.0,42.8,30.05,SE,128,5.8,5.8,22,0.00,,FEW100,0.00,VWS V14.01,2013-08-17 19:52:00,
2013-08-17 14:53:00,86.0,42.8,30.05,SE,129,4.9,5.8,22,0.00,,FEW100,0.00,VWS V14.01,2013-08-17 19:53:00,
2013-08-17 14:54:00,86.0,42.8,30.05,ESE,120,0.0,0.0,22,0.00,,FEW100,0.00,VWS V14.01,2013-08-17 19:54:00,
2013-08-17 14:56:00,86.0,42.8,30.05,SE,129,0.0,2.7,22,0.00,,FEW100,0.00,VWS V14.01,2013-08-17 19:56:00,
2013-08-17 14:57:00,86.2,42.9,30.05,SE,127,3.6,5.4,22,0.00,,FEW100,0.00,VWS V14.01,2013-08-17 19:57:00,
2013-08-17 14:58:00,86.2,42.9,30.05,ESE,117,3.1,5.4,22,0.00,,FEW100,0.00,VWS V14.01,2013-08-17 19:58:00,
2013-08-17 14:59:00,86.2,42.9,30.05,NE,43,0.0,4.0,22,0.00,,FEW100,0.00,VWS V14.01,2013-08-17 19:59:00,
2013-08-17 15:01:00,86.5,43.2,30.05,East,79,2.7,4.5,22,0.00,,FEW100,0.00,VWS V14.01,2013-08-17 20:01:00,
2013-08-17 15:03:00,86.5,43.2,30.05,East,79,0.0,0.0,22,0.00,,FEW100,0.00,VWS V14.01,2013-08-17 20:03:00,
2013-08-17 15:04:00,86.7,43.4,30.05,ENE,76,2.7,2.7,22,0.00,,FEW100,0.00,VWS V14.01,2013-08-17 20:04:00,
2013-08-17 15:08:00,86.0,42.8,30.05,East,87,0.0,3.1,22,0.00,,FEW100,0.00,VWS V14.01,2013-08-17 20:08:00,
2013-08-17 15:09:00,86.0,42.8,30.05,North,6,8.1,8.1,22,0.00,,FEW100,0.00,VWS V14.01,2013-08-17 20:09:00,
2013-08-17 15:10:00,85.6,42.5,30.05,NNE,32,3.6,8.1,22,0.00,,FEW100,0.00,VWS V14.01,2013-08-17 20:10:00,
2013-08-17 15:13:00,85.3,42.2,30.05,ESE,120,2.7,3.1,22,0.00,,FEW100,0.00,VWS V14.01,2013-08-17 20:13:00,
2013-08-17 15:14:00,84.9,41.9,30.05,ENE,77,0.0,0.0,22,0.00,,FEW100,0.00,VWS V14.01,2013-08-17 20:14:00,
2013-08-17 15:16:00,84.9,41.9,30.05,SE,140,3.6,4.0,22,0.00,,FEW100,0.00,VWS V14.01,2013-08-17 20:16:00,
2013-08-17 15:18:00,84.9,41.9,30.05,South,169,3.1,3.1,22,0.00,,FEW100,0.00,VWS V14.01,2013-08-17 20:18:00,
2013-08-17 15:19:00,85.1,42.0,30.05,East,97,0.0,0.0,22,0.00,,FEW100,0.00,VWS V14.01,2013-08-17 20:19:00,
2013-08-17 15:20:00,85.1,42.0,30.05,East,97,0.0,0.0,22,0.00,,FEW100,0.00,VWS V14.01,2013-08-17 20:20:00,
2013-08-17 15:21:00,85.5,42.3,30.05,East,97,0.0,0.0,22,0.00,,FEW100,0.00,VWS V14.01,2013-08-17 20:21:00,
2013-08-17 15:23:00,86.0,42.8,30.05,East,97,0.0,3.1,22,0.00,,FEW100,0.00,VWS V14.01,2013-08-17 20:23:00,
2013-08-17 15:25:00,86.2,42.9,30.05,ENE,71,3.1,3.6,22,0.00,,FEW100,0.00,VWS V14.01,2013-08-17 20:25:00,
2013-08-17 15:27:00,86.2,42.9,30.05,NE,36,5.8,5.8,22,0.00,,FEW100,0.00,VWS V14.01,2013-08-17 20:27:00,
2013-08-17 15:29:00,85.8,42.6,30.05,NE,43,2.2,2.2,22,0.00,,FEW100,0.00,VWS V14.01,2013-08-17 20:29:00,
2013-08-17 15:31:00,85.1,42.0,30.05,East,81,0.0,4.0,22,0.00,,FEW100,0.00,VWS V14.01,2013-08-17 20:31:00,
2013-08-17 15:32:00,84.9,41.9,30.05,East,81,0.0,0.0,22,0.00,,FEW100,0.00,VWS V14.01,2013-08-17 20:32:00,
2013-08-17 15:33:00,84.9,41.9,30.05,East,81,2.7,2.7,22,0.00,,FEW100,0.00,VWS V14.01,2013-08-17 20:33:00,
2013-08-17 15:34:00,85.1,42.0,30.05,East,81,0.0,0.0,22,0.00,,FEW100,0.00,VWS V14.01,2013-08-17 20:34:00,
2013-08-17 15:37:00,86.0,42.8,30.05,East,96,0.0,0.0,22,0.00,,FEW100,0.00,VWS V14.01,2013-08-17 20:37:00,
2013-08-17 15:38:00,86.2,42.9,30.05,ENE,59,2.7,4.0,22,0.00,,FEW100,0.00,VWS V14.01,2013-08-17 20:38:00,
2013-08-17 15:40:00,86.5,43.2,30.05,North,10,2.7,2.7,22,0.00,,FEW100,0.00,VWS V14.01,2013-08-17 20:40:00,
2013-08-17 15:43:00,86.7,43.4,30.05,East,93,2.7,3.6,22,0.00,,FEW100,0.00,VWS V14.01,2013-08-17 20:43:00,
2013-08-17 15:44:00,86.9,43.5,30.05,East,93,0.0,2.7,22,0.00,,FEW100,0.00,VWS V14.01,2013-08-17 20:44:00,
2013-08-17 15:46:00,87.1,43.7,30.05,East,93,2.7,2.7,22,0.00,,FEW100,0.00,VWS V14.01,2013-08-17 20:46:00,
2013-08-17 15:48:00,87.6,44.1,30.05,East,93,0.0,0.0,22,0.00,,FEW100,0.00,VWS V14.01,2013-08-17 20:48:00,
2013-08-17 15:49:00,87.6,44.1,30.05,East,93,0.0,0.0,22,0.00,,FEW100,0.00,VWS V14.01,2013-08-17 20:49:00,
2013-08-17 15:51:00,88.2,42.1,30.05,East,85,0.0,0.0,20,0.00,,FEW100,0.00,VWS V14.01,2013-08-17 20:51:00,
2013-08-17 15:54:00,88.2,42.1,30.05,ENE,76,2.2,3.1,20,0.00,,FEW100,0.00,VWS V14.01,2013-08-17 20:54:00,
2013-08-17 15:55:00,88.3,42.2,30.05,ENE,78,0.0,3.6,20,0.00,,FEW100,0.00,VWS V14.01,2013-08-17 20:55:00,
2013-08-17 15:56:00,88.3,42.2,30.05,North,10,3.1,3.1,20,0.00,,FEW100,0.00,VWS V14.01,2013-08-17 20:56:00,
2013-08-17 15:57:00,88.3,42.2,30.05,NE,46,0.0,3.1,20,0.00,,FEW100,0.00,VWS V14.01,2013-08-17 20:57:00,
2013-08-17 16:00:00,88.0,41.9,30.05,NE,49,0.0,2.2,20,0.00,,FEW100,0.00,VWS V14.01,2013-08-17 21:00:00,
2013-08-17 16:01:00,88.0,41.9,30.05,East,85,2.7,6.3,20,0.00,,FEW100,0.00,VWS V14.01,2013-08-17 21:01:00,
2013-08-17 16:02:00,87.6,44.1,30.05,East,88,0.0,0.0,22,0.00,,FEW100,0.00,VWS V14.01,2013-08-17 21:02:00,
2013-08-17 16:03:00,87.4,44.0,30.05,East,88,0.0,0.0,22,0.00,,FEW100,0.00,VWS V14.01,2013-08-17 21:03:00,
2013-08-17 16:06:00,86.2,42.9,30.05,East,88,0.0,0.0,22,0.00,,FEW100,0.00,VWS V14.01,2013-08-17 21:06:00,
2013-08-17 16:07:00,85.8,42.6,30.05,East,88,0.0,0.0,22,0.00,,FEW100,0.00,VWS V14.01,2013-08-17 21:07:00,
2013-08-17 16:08:00,85.3,42.2,30.05,East,88,0.0,0.0,22,0.00,,FEW100,0.00,VWS V14.01,2013-08-17 21:08:00,
2013-08-17 16:09:00,84.7,33.6,30.05,East,88,0.0,0.0,16,0.00,,FEW100,0.00,VWS V14.01,2013-08-17 21:09:00,
2013-08-17 16:11:00,84.7,33.6,30.05,East,88,0.0,0.0,16,0.00,,FEW100,0.00,VWS V14.01,2013-08-17 21:11:00,
2013-08-17 16:12:00,84.9,41.9,30.05,North,3,4.0,4.0,22,0.00,,FEW100,0.00,VWS V14.01,2013-08-17 21:12:00,
2013-08-17 16:13:00,84.9,41.9,30.05,East,83,2.7,4.0,22,0.00,,FEW100,0.00,VWS V14.01,2013-08-17 21:13:00,
2013-08-17 16:14:00,85.3,42.2,30.05,East,87,3.1,3.1,22,0.00,,FEW100,0.00,VWS V14.01,2013-08-17 21:14:00,
2013-08-17 16:17:00,86.0,42.8,30.05,East,87,0.0,2.7,22,0.00,,FEW100,0.00,VWS V14.01,2013-08-17 21:17:00,
2013-08-17 16:18:00,86.2,42.9,30.05,East,89,2.2,2.2,22,0.00,,FEW100,0.00,VWS V14.01,2013-08-17 21:18:00,
2013-08-17 16:19:00,86.7,43.4,30.05,East,92,0.0,3.1,22,0.00,,FEW100,0.00,VWS V14.01,2013-08-17 21:19:00,
2013-08-17 16:20:00,87.1,43.7,30.05,NNE,31,4.0,5.4,22,0.00,,FEW100,0.00,VWS V14.01,2013-08-17 21:20:00,
2013-08-17 16:22:00,87.1,43.7,30.05,East,89,2.7,2.7,22,0.00,,FEW100,0.00,VWS V14.01,2013-08-17 21:22:00,
2013-08-17 16:23:00,87.3,43.8,30.05,NNE,31,3.6,4.0,22,0.00,,FEW100,0.00,VWS V14.01,2013-08-17 21:23:00,
2013-08-17 16:24:00,87.1,43.7,30.05,East,93,3.1,3.6,22,0.00,,FEW100,0.00,VWS V14.01,2013-08-17 21:24:00,
2013-08-17 16:25:00,86.7,43.4,30.05,East,100,2.7,3.6,22,0.00,,FEW100,0.00,VWS V14.01,2013-08-17 21:25:00,
2013-08-17 16:27:00,85.8,42.6,30.05,East,99,0.0,0.0,22,0.00,,FEW100,0.00,VWS V14.01,2013-08-17 21:27:00,
2013-08-17 16:28:00,85.1,42.0,30.05,East,101,0.0,0.0,22,0.00,,FEW100,0.00,VWS V14.01,2013-08-17 21:28:00,
2013-08-17 16:30:00,84.6,33.5,30.05,ESE,103,2.2,2.7,16,0.00,,FEW100,0.00,VWS V14.01,2013-08-17 21:30:00,
2013-08-17 16:33:00,83.7,35.7,30.05,SE,133,0.0,0.0,18,0.00,,FEW100,0.00,VWS V14.01,2013-08-17 21:33:00,
2013-08-17 16:34:00,83.5,35.6,30.05,SE,143,4.0,4.0,18,0.00,,FEW100,0.00,VWS V14.01,2013-08-17 21:34:00,
2013-08-17 16:35:00,83.7,35.7,30.05,ESE,115,2.7,3.6,18,0.00,,FEW100,0.00,VWS V14.01,2013-08-17 21:35:00,
2013-08-17 16:36:00,83.7,35.7,30.05,ESE,115,0.0,3.6,18,0.00,,FEW100,0.00,VWS V14.01,2013-08-17 21:36:00,
2013-08-17 16:39:00,84.2,33.2,30.05,SE,126,0.0,0.0,16,0.00,,FEW100,0.00,VWS V14.01,2013-08-17 21:39:00,
2013-08-17 16:41:00,84.7,41.7,30.05,East,80,2.7,3.6,22,0.00,,FEW100,0.00,VWS V14.01,2013-08-17 21:41:00,
2013-08-17 16:44:00,85.6,42.5,30.05,ESE,110,0.0,0.0,22,0.00,,FEW100,0.00,VWS V14.01,2013-08-17 21:44:00,
2013-08-17 16:45:00,85.8,42.6,30.05,East,84,3.1,3.1,22,0.00,,FEW100,0.00,VWS V14.01,2013-08-17 21:45:00,
2013-08-17 16:46:00,86.2,42.9,30.05,East,84,4.9,6.3,22,0.00,,FEW100,0.00,VWS V14.01,2013-08-17 21:46:00,
2013-08-17 16:50:00,87.3,43.8,30.05,East,86,4.0,4.0,22,0.00,,FEW100,0.00,VWS V14.01,2013-08-17 21:50:00,
2013-08-17 16:51:00,87.3,43.8,30.05,East,86,4.0,4.5,22,0.00,,FEW100,0.00,VWS V14.01,2013-08-17 21:51:00,
2013-08-17 16:52:00,87.4,44.0,30.05,NE,35,7.6,7.6,22,0.00,,FEW100,0.00,VWS V14.01,2013-08-17 21:52:00,
2013-08-17 16:53:00,87.6,44.1,30.05,ENE,78,3.6,7.6,22,0.00,,FEW100,0.00,VWS V14.01,2013-08-17 21:53:00,
2013-08-17 16:56:00,87.4,44.0,30.05,East,81,0.0,0.0,22,0.00,,FEW100,0.00,VWS V14.01,2013-08-17 21:56:00,
2013-08-17 16:57:00,87.4,44.0,30.05,East,81,0.0,0.0,22,0.00,,FEW100,0.00,VWS V14.01,2013-08-17 21:57:00,
2013-08-17 16:58:00,87.6,44.1,30.05,East,90,3.1,3.1,22,0.00,,FEW100,0.00,VWS V14.01,2013-08-17 21:58:00,
2013-08-17 16:59:00,87.4,44.0,30.05,East,90,2.7,3.1,22,0.00,,FEW100,0.00,VWS V14.01,2013-08-17 21:59:00,
2013-08-17 17:01:00,86.9,43.5,30.05,East,85,3.1,3.1,22,0.00,,FEW100,0.00,VWS V14.01,2013-08-17 22:01:00,
2013-08-17 17:02:00,86.9,43.5,30.05,East,87,2.7,3.1,22,0.00,,FEW100,0.00,VWS V14.01,2013-08-17 22:02:00,
2013-08-17 17:03:00,86.5,43.2,30.05,East,87,0.0,3.6,22,0.00,,FEW100,0.00,VWS V14.01,2013-08-17 22:03:00,
2013-08-17 17:06:00,85.6,42.5,30.05,East,88,0.0,0.0,22,0.00,,FEW100,0.00,VWS V14.01,2013-08-17 22:06:00,
2013-08-17 17:07:00,85.1,42.0,30.05,East,88,0.0,0.0,22,0.00,,FEW100,0.00,VWS V14.01,2013-08-17 22:07:00,
2013-08-17 17:08:00,84.7,33.6,30.05,East,88,0.0,0.0,16,0.00,,FEW100,0.00,VWS V14.01,2013-08-17 22:08:00,
2013-08-17 17:09:00,84.2,33.2,30.05,East,88,0.0,0.0,16,0.00,,FEW100,0.00,VWS V14.01,2013-08-17 22:09:00,
2013-08-17 17:12:00,83.3,35.4,30.05,East,88,0.0,0.0,18,0.00,,FEW100,0.00,VWS V14.01,2013-08-17 22:12:00,
2013-08-17 17:13:00,82.9,35.1,30.05,East,88,0.0,0.0,18,0.00,,FEW100,0.00,VWS V14.01,2013-08-17 22:13:00,
2013-08-17 17:14:00,82.4,34.7,30.05,East,88,0.0,0.0,18,0.00,,FEW100,0.00,VWS V14.01,2013-08-17 22:14:00,
2013-08-17 17:18:00,81.5,34.0,30.05,East,89,0.0,0.0,18,0.00,,FEW100,0.00,VWS V14.01,2013-08-17 22:18:00,
2013-08-17 17:20:00,81.3,33.8,30.05,East,89,0.0,0.0,18,0.00,,FEW100,0.00,VWS V14.01,2013-08-17 22:20:00,
2013-08-17 17:23:00,82.0,34.4,30.05,East,89,0.0,0.0,18,0.00,,FEW100,0.00,VWS V14.01,2013-08-17 22:23:00,
2013-08-17 17:25:00,82.8,35.0,30.05,SE,129,2.2,4.9,18,0.00,,FEW100,0.00,VWS V14.01,2013-08-17 22:25:00,
2013-08-17 17:26:00,83.1,35.3,30.05,East,93,3.6,4.5,18,0.00,,FEW100,0.00,VWS V14.01,2013-08-17 22:26:00,
2013-08-17 17:28:00,83.3,35.4,30.05,SE,124,3.1,3.1,18,0.00,,FEW100,0.00,VWS V14.01,2013-08-17 22:28:00,
2013-08-17 17:29:00,83.5,35.6,30.05,SE,142,0.0,3.1,18,0.00,,FEW100,0.00,VWS V14.01,2013-08-17 22:29:00,
2013-08-17 17:31:00,83.7,35.7,30.05,ESE,116,2.7,3.1,18,0.00,,FEW100,0.00,VWS V14.01,2013-08-17 22:31:00,
2013-08-17 17:32:00,83.7,35.7,30.05,East,98,2.7,2.7,18,0.00,,FEW100,0.00,VWS V14.01,2013-08-17 22:32:00,
2013-08-17 17:33:00,83.8,35.8,30.05,ENE,75,0.0,0.0,18,0.00,,FEW100,0.00,VWS V14.01,2013-08-17 22:33:00,
2013-08-17 17:34:00,83.8,35.8,30.05,ENE,77,0.0,0.0,18,0.00,,FEW100,0.00,VWS V14.01,2013-08-17 22:34:00,
2013-08-17 17:36:00,84.0,36.0,30.05,ENE,78,0.0,0.0,18,0.00,,FEW100,0.00,VWS V14.01,2013-08-17 22:36:00,
2013-08-17 17:37:00,84.2,33.2,30.05,ENE,77,0.0,0.0,16,0.00,,FEW100,0.00,VWS V14.01,2013-08-17 22:37:00,
2013-08-17 17:39:00,84.6,41.6,30.05,ENE,77,0.0,0.0,22,0.00,,FEW100,0.00,VWS V14.01,2013-08-17 22:39:00,
2013-08-17 17:41:00,84.9,41.9,30.05,East,89,0.0,3.6,22,0.00,,FEW100,0.00,VWS V14.01,2013-08-17 22:41:00,
2013-08-17 17:43:00,84.9,41.9,30.05,East,90,2.7,2.7,22,0.00,,FEW100,0.00,VWS V14.01,2013-08-17 22:43:00,
2013-08-17 17:44:00,84.6,41.6,30.05,East,90,2.7,3.1,22,0.00,,FEW100,0.00,VWS V14.01,2013-08-17 22:44:00,
2013-08-17 17:46:00,83.7,35.7,30.05,East,90,0.0,0.0,18,0.00,,FEW100,0.00,VWS V14.01,2013-08-17 22:46:00,
2013-08-17 17:47:00,83.7,35.7,30.05,East,90,0.0,0.0,18,0.00,,FEW100,0.00,VWS V14.01,2013-08-17 22:47:00,
2013-08-17 17:49:00,82.8,35.0,30.05,East,90,0.0,0.0,18,0.00,,FEW100,0.00,VWS V14.01,2013-08-17 22:49:00,
2013-08-17 17:52:00,81.7,34.1,30.05,East,91,0.0,0.0,18,0.00,,FEW100,0.00,VWS V14.01,2013-08-17 22:52:00,
2013-08-17 17:53:00,81.5,34.0,30.05,East,91,0.0,0.0,18,0.00,,FEW100,0.00,VWS V14.01,2013-08-17 22:53:00,
2013-08-17 17:54:00,81.3,33.8,30.05,East,92,2.2,2.2,18,0.00,,FEW100,0.00,VWS V14.01,2013-08-17 22:54:00,
2013-08-17 17:58:00,80.2,35.6,30.05,East,92,0.0,0.0,20,0.00,,FEW100,0.00,VWS V14.01,2013-08-17 22:58:00,
2013-08-17 17:59:00,80.2,35.6,30.05,East,93,0.0,0.0,20,0.00,,FEW100,0.00,VWS V14.01,2013-08-17 22:59:00,
2013-08-17 18:03:00,81.0,33.5,30.05,East,92,0.0,0.0,18,0.00,,FEW100,0.00,VWS V14.01,2013-08-17 23:03:00,
2013-08-17 18:04:00,81.1,33.7,30.05,East,93,0.0,0.0,18,0.00,,FEW100,0.00,VWS V14.01,2013-08-17 23:04:00,
2013-08-17 18:05:00,81.3,33.8,30.05,East,92,0.0,0.0,18,0.00,,FEW100,0.00,VWS V14.01,2013-08-17 23:05:00,
2013-08-17 18:08:00,82.0,34.4,30.05,East,94,0.0,0.0,18,0.00,,FEW100,0.00,VWS V14.01,2013-08-17 23:08:00,
2013-08-17 18:09:00,82.4,34.7,30.05,East,95,0.0,0.0,18,0.00,,FEW100,0.00,VWS V14.01,2013-08-17 23:09:00,
2013-08-17 18:10:00,82.4,34.7,30.05,East,94,4.0,4.0,18,0.00,,FEW100,0.00,VWS V14.01,2013-08-17 23:10:00,
2013-08-17 18:13:00,82.9,35.1,30.05,East,96,0.0,0.0,18,0.00,,FEW100,0.00,VWS V14.01,2013-08-17 23:13:00,
2013-08-17 18:14:00,82.9,35.1,30.05,East,96,2.7,2.7,18,0.00,,FEW100,0.00,VWS V14.01,2013-08-17 23:14:00,
2013-08-17 18:15:00,82.9,35.1,30.05,ESE,107,0.0,3.6,18,0.00,,FEW100,0.00,VWS V14.01,2013-08-17 23:15:00,
2013-08-17 18:20:00,83.1,35.3,30.05,East,91,3.1,4.0,18,0.00,,FEW100,0.00,VWS V14.01,2013-08-17 23:20:00,
2013-08-17 18:21:00,83.1,35.3,30.05,East,88,3.1,3.1,18,0.00,,FEW100,0.00,VWS V14.01,2013-08-17 23:21:00,
2013-08-17 18:25:00,82.8,35.0,30.05,East,82,0.0,2.7,18,0.00,,FEW100,0.00,VWS V14.01,2013-08-17 23:25:00,
2013-08-17 18:26:00,82.8,35.0,30.05,East,82,0.0,0.0,18,0.00,,FEW100,0.00,VWS V14.01,2013-08-17 23:26:00,
2013-08-17 18:27:00,82.8,35.0,30.05,East,82,0.0,0.0,18,0.00,,FEW100,0.00,VWS V14.01,2013-08-17 23:27:00,
2013-08-17 18:30:00,82.9,35.1,30.05,East,82,0.0,2.7,18,0.00,,FEW100,0.00,VWS V14.01,2013-08-17 23:30:00,
2013-08-17 18:31:00,82.9,35.1,30.05,East,82,0.0,0.0,18,0.00,,FEW100,0.00,VWS V14.01,2013-08-17 23:31:00,
2013-08-17 18:32:00,82.9,35.1,30.05,East,82,0.0,0.0,18,0.00,,FEW100,0.00,VWS V14.01,2013-08-17 23:32:00,
2013-08-17 18:33:00,82.9,35.1,30.05,East,83,2.7,4.0,18,0.00,,FEW100,0.00,VWS V14.01,2013-08-17 23:33:00,
2013-08-17 18:36:00,82.8,35.0,30.05,East,84,0.0,0.0,18,0.00,,FEW100,0.00,VWS V14.01,2013-08-17 23:36:00,
2013-08-17 18:37:00,82.8,35.0,30.05,East,84,0.0,0.0,18,0.00,,FEW100,0.00,VWS V14.01,2013-08-17 23:37:00,
2013-08-17 18:38:00,82.6,34.8,30.05,East,83,2.7,3.6,18,0.00,,FEW100,0.00,VWS V14.01,2013-08-17 23:38:00,
2013-08-17 18:41:00,82.4,34.7,30.05,East,93,3.1,3.1,18,0.00,,FEW100,0.00,VWS V14.01,2013-08-17 23:41:00,
2013-08-17 18:42:00,82.4,34.7,30.05,East,93,0.0,3.1,18,0.00,,FEW100,0.00,VWS V14.01,2013-08-17 23:42:00,
2013-08-17 18:43:00,82.4,34.7,30.05,East,93,0.0,0.0,18,0.00,,FEW100,0.00,VWS V14.01,2013-08-17 23:43:00,
2013-08-17 18:44:00,82.2,34.5,30.05,East,93,0.0,0.0,18,0.00,,FEW100,0.00,VWS V14.01,2013-08-17 23:44:00,
2013-08-17 18:46:00,81.9,34.2,30.05,East,93,0.0,2.2,18,0.00,,FEW100,0.00,VWS V14.01,2013-08-17 23:46:00,
2013-08-17 18:47:00,81.7,34.1,30.05,East,93,0.0,0.0,18,0.00,,FEW100,0.00,VWS V14.01,2013-08-17 23:47:00,
2013-08-17 18:48:00,81.5,34.0,30.05,East,93,0.0,0.0,18,0.00,,FEW100,0.00,VWS V14.01,2013-08-17 23:48:00,
2013-08-17 18:49:00,81.3,33.8,30.05,East,93,2.7,3.1,18,0.00,,FEW100,0.00,VWS V14.01,2013-08-17 23:49:00,
2013-08-17 18:52:00,81.1,33.7,30.05,East,93,0.0,0.0,18,0.00,,FEW100,0.00,VWS V14.01,2013-08-17 23:52:00,
2013-08-17 18:53:00,81.1,33.7,30.05,East,93,0.0,0.0,18,0.00,,FEW100,0.00,VWS V14.01,2013-08-17 23:53:00,
2013-08-17 18:54:00,81.1,33.7,30.05,East,93,0.0,0.0,18,0.00,,FEW100,0.00,VWS V14.01,2013-08-17 23:54:00,
2013-08-17 18:55:00,81.0,33.5,30.05,East,93,0.0,0.0,18,0.00,,FEW100,0.00,VWS V14.01,2013-08-17 23:55:00,
2013-08-17 18:57:00,80.8,33.4,30.05,East,89,2.7,3.1,18,0.00,,FEW100,0.00,VWS V14.01,2013-08-17 23:57:00,
2013-08-17 18:58:00,80.8,33.4,30.05,East,89,0.0,3.1,18,0.00,,FEW100,0.00,VWS V14.01,2013-08-17 23:58:00,
2013-08-17 18:59:00,80.6,33.2,30.05,East,87,0.0,2.7,18,0.00,,FEW100,0.00,VWS V14.01,2013-08-17 23:59:00,
2013-08-17 19:02:00,80.4,35.7,30.05,East,88,0.0,2.7,20,0.00,,FEW100,0.00,VWS V14.01,2013-08-18 00:02:00,
2013-08-17 19:03:00,80.2,35.6,30.05,East,88,0.0,0.0,20,0.00,,FEW100,0.00,VWS V14.01,2013-08-18 00:03:00,
2013-08-17 19:04:00,80.2,35.6,30.05,East,88,0.0,0.0,20,0.00,,FEW100,0.00,VWS V14.01,2013-08-18 00:04:00,
2013-08-17 19:05:00,80.1,35.4,30.05,East,88,0.0,0.0,20,0.00,,FEW100,0.00,VWS V14.01,2013-08-18 00:05:00,
2013-08-17 19:07:00,79.9,35.3,30.05,East,88,0.0,0.0,20,0.00,,FEW100,0.00,VWS V14.01,2013-08-18 00:07:00,
2013-08-17 19:08:00,79.7,35.1,30.05,East,88,0.0,0.0,20,0.00,,FEW100,0.00,VWS V14.01,2013-08-18 00:08:00,
2013-08-17 19:09:00,79.7,35.1,30.05,East,88,0.0,0.0,20,0.00,,FEW100,0.00,VWS V14.01,2013-08-18 00:09:00,
2013-08-17 19:11:00,79.5,35.0,30.05,East,88,0.0,0.0,20,0.00,,FEW100,0.00,VWS V14.01,2013-08-18 00:11:00,
2013-08-17 19:14:00,79.3,34.8,30.05,East,83,0.0,0.0,20,0.00,,FEW100,0.00,VWS V14.01,2013-08-18 00:14:00,
2013-08-17 19:15:00,79.3,34.8,30.05,East,83,2.2,2.7,20,0.00,,FEW100,0.00,VWS V14.01,2013-08-18 00:15:00,
2013-08-17 19:16:00,79.2,34.7,30.05,East,83,0.0,0.0,20,0.00,,FEW100,0.00,VWS V14.01,2013-08-18 00:16:00,
2013-08-17 19:17:00,79.0,34.5,30.05,East,83,0.0,0.0,20,0.00,,FEW100,0.00,VWS V14.01,2013-08-18 00:17:00,
2013-08-17 19:19:00,78.8,34.4,30.05,East,83,3.1,3.1,20,0.00,,FEW100,0.00,VWS V14.01,2013-08-18 00:19:00,
2013-08-17 19:20:00,78.6,34.2,30.05,East,83,0.0,3.1,20,0.00,,FEW100,0.00,VWS V14.01,2013-08-18 00:20:00,
2013-08-17 19:22:00,78.4,34.1,30.05,East,83,0.0,3.1,20,0.00,,FEW100,0.00,VWS V14.01,2013-08-18 00:22:00,
2013-08-17 19:25:00,77.9,33.6,30.05,East,83,2.7,3.1,20,0.00,,FEW100,0.00,VWS V14.01,2013-08-18 00:25:00,
2013-08-17 19:27:00,77.7,33.5,30.05,East,83,2.7,2.7,20,0.00,,FEW100,0.00,VWS V14.01,2013-08-18 00:27:00,
2013-08-17 19:28:00,77.7,33.5,30.05,East,83,0.0,2.7,20,0.00,,FEW100,0.00,VWS V14.01,2013-08-18 00:28:00,
2013-08-17 19:31:00,77.2,33.0,30.05,East,83,0.0,3.6,20,0.00,,FEW100,0.00,VWS V14.01,2013-08-18 00:31:00,
2013-08-17 19:32:00,77.0,32.9,30.05,East,83,0.0,0.0,20,0.00,,FEW100,0.00,VWS V14.01,2013-08-18 00:32:00,
2013-08-17 19:33:00,77.0,32.9,30.05,East,83,0.0,0.0,20,0.00,,FEW100,0.00,VWS V14.01,2013-08-18 00:33:00,
2013-08-17 19:34:00,76.6,32.6,30.05,East,83,0.0,0.0,20,0.00,,FEW100,0.00,VWS V14.01,2013-08-18 00:34:00,
2013-08-17 19:37:00,75.7,31.9,30.05,East,83,0.0,0.0,20,0.00,,FEW100,0.00,VWS V14.01,2013-08-18 00:37:00,
2013-08-17 19:38:00,75.4,31.6,30.05,East,83,0.0,0.0,20,0.00,,FEW100,0.00,VWS V14.01,2013-08-18 00:38:00,
2013-08-17 19:40:00,74.7,33.3,30.05,East,83,0.0,0.0,22,0.00,,FEW100,0.00,VWS V14.01,2013-08-18 00:40:00,
2013-08-17 19:42:00,73.9,32.7,30.05,East,83,0.0,0.0,22,0.00,,FEW100,0.00,VWS V14.01,2013-08-18 00:42:00,
2013-08-17 19:43:00,73.4,32.3,30.05,East,83,0.0,0.0,22,0.00,,FEW100,0.00,VWS V14.01,2013-08-18 00:43:00,
2013-08-17 19:47:00,72.1,31.2,30.05,East,83,0.0,0.0,22,0.00,,FEW100,0.00,VWS V14.01,2013-08-18 00:47:00,
2013-08-17 19:48:00,71.8,30.9,30.05,East,83,0.0,0.0,22,0.00,,FEW100,0.00,VWS V14.01,2013-08-18 00:48:00,
2013-08-17 19:53:00,70.7,32.2,30.05,East,83,0.0,0.0,24,0.00,,FEW100,0.00,VWS V14.01,2013-08-18 00:53:00,
2013-08-17 19:54:00,70.3,31.9,30.05,East,83,0.0,0.0,24,0.00,,FEW100,0.00,VWS V14.01,2013-08-18 00:54:00,
2013-08-17 19:58:00,69.4,31.1,30.08,East,83,0.0,0.0,24,0.00,,FEW100,0.00,VWS V14.01,2013-08-18 00:58:00,
2013-08-17 19:59:00,69.3,36.5,30.08,East,83,0.0,0.0,30,0.00,,FEW100,0.00,VWS V14.01,2013-08-18 00:59:00,
2013-08-17 20:03:00,68.5,35.9,30.08,East,83,0.0,0.0,30,0.00,,FEW100,0.00,VWS V14.01,2013-08-18 01:03:00,
2013-08-17 20:04:00,68.5,35.9,30.08,East,83,0.0,0.0,30,0.00,,FEW100,0.00,VWS V14.01,2013-08-18 01:04:00,
2013-08-17 20:08:00,67.8,35.3,30.08,East,83,0.0,0.0,30,0.00,,FEW100,0.00,VWS V14.01,2013-08-18 01:08:00,
2013-08-17 20:09:00,67.6,35.1,30.08,East,83,2.7,2.7,30,0.00,,FEW100,0.00,VWS V14.01,2013-08-18 01:09:00,
2013-08-17 20:10:00,67.5,35.0,30.08,East,83,2.7,2.7,30,0.00,,FEW100,0.00,VWS V14.01,2013-08-18 01:10:00,
2013-08-17 20:13:00,67.1,34.7,30.05,East,83,0.0,0.0,30,0.00,,FEW100,0.00,VWS V14.01,2013-08-18 01:13:00,
2013-08-17 20:14:00,67.1,34.7,30.05,East,83,0.0,0.0,30,0.00,,FEW100,0.00,VWS V14.01,2013-08-18 01:14:00,
2013-08-17 20:15:00,66.9,34.5,30.05,East,83,0.0,0.0,30,0.00,,FEW100,0.00,VWS V14.01,2013-08-18 01:15:00,
2013-08-17 20:16:00,66.9,34.5,30.05,East,83,0.0,0.0,30,0.00,,FEW100,0.00,VWS V14.01,2013-08-18 01:16:00,
2013-08-17 20:19:00,66.6,37.3,30.05,East,83,0.0,0.0,34,0.00,,FEW100,0.00,VWS V14.01,2013-08-18 01:19:00,
2013-08-17 20:20:00,66.6,37.3,30.05,East,83,0.0,0.0,34,0.00,,FEW100,0.00,VWS V14.01,2013-08-18 01:20:00,
2013-08-17 20:21:00,66.4,37.2,30.05,East,83,0.0,0.0,34,0.00,,FEW100,0.00,VWS V14.01,2013-08-18 01:21:00,
2013-08-17 20:25:00,66.0,38.3,30.05,East,83,0.0,0.0,36,0.00,,FEW100,0.00,VWS V14.01,2013-08-18 01:25:00,
2013-08-17 20:26:00,66.0,38.3,30.05,East,83,0.0,0.0,36,0.00,,FEW100,0.00,VWS V14.01,2013-08-18 01:26:00,
2013-08-17 20:30:00,65.8,38.2,30.05,East,83,0.0,0.0,36,0.00,,FEW100,0.00,VWS V14.01,2013-08-18 01:30:00,
2013-08-17 20:31:00,65.8,38.2,30.05,East,83,0.0,0.0,36,0.00,,FEW100,0.00,VWS V14.01,2013-08-18 01:31:00,
2013-08-17 20:32:00,65.8,38.2,30.05,East,83,0.0,0.0,36,0.00,,FEW100,0.00,VWS V14.01,2013-08-18 01:32:00,
2013-08-17 20:35:00,65.5,40.5,30.05,East,83,0.0,0.0,40,0.00,,FEW100,0.00,VWS V14.01,2013-08-18 01:35:00,
2013-08-17 20:36:00,65.5,40.5,30.05,East,83,0.0,0.0,40,0.00,,FEW100,0.00,VWS V14.01,2013-08-18 01:36:00,
2013-08-17 20:37:00,65.5,40.5,30.05,East,83,0.0,0.0,40,0.00,,FEW100,0.00,VWS V14.01,2013-08-18 01:37:00,
2013-08-17 20:38:00,65.3,40.4,30.05,East,83,0.0,0.0,40,0.00,,FEW100,0.00,VWS V14.01,2013-08-18 01:38:00,
2013-08-17 20:41:00,65.1,40.2,30.05,East,83,0.0,0.0,40,0.00,,FEW100,0.00,VWS V14.01,2013-08-18 01:41:00,
2013-08-17 20:43:00,64.9,40.1,30.05,East,83,0.0,0.0,40,0.00,,FEW100,0.00,VWS V14.01,2013-08-18 01:43:00,
2013-08-17 20:47:00,64.8,43.5,30.05,East,83,0.0,0.0,46,0.00,,FEW100,0.00,VWS V14.01,2013-08-18 01:47:00,
2013-08-17 20:48:00,64.8,43.5,30.05,East,83,0.0,0.0,46,0.00,,FEW100,0.00,VWS V14.01,2013-08-18 01:48:00,
2013-08-17 20:50:00,64.6,43.4,30.05,East,83,0.0,0.0,46,0.00,,FEW100,0.00,VWS V14.01,2013-08-18 01:50:00,
2013-08-17 20:52:00,64.4,43.2,30.05,East,83,0.0,0.0,46,0.00,,FEW100,0.00,VWS V14.01,2013-08-18 01:52:00,
2013-08-17 20:53:00,64.4,43.2,30.05,East,83,0.0,0.0,46,0.00,,FEW100,0.00,VWS V14.01,2013-08-18 01:53:00,
2013-08-17 20:54:00,64.4,43.2,30.05,East,83,0.0,0.0,46,0.00,,FEW100,0.00,VWS V14.01,2013-08-18 01:54:00,
2013-08-17 20:58:00,64.2,44.1,30.05,East,83,0.0,0.0,48,0.00,,FEW100,0.00,VWS V14.01,2013-08-18 01:58:00,
2013-08-17 20:59:00,64.2,44.1,30.05,East,83,0.0,0.0,48,0.00,,FEW100,0.00,VWS V14.01,2013-08-18 01:59:00,
2013-08-17 21:00:00,64.2,44.1,30.05,East,83,0.0,0.0,48,0.00,,FEW100,0.00,VWS V14.01,2013-08-18 02:00:00,
2013-08-17 21:03:00,64.2,44.1,30.05,East,83,0.0,0.0,48,0.00,,FEW100,0.00,VWS V14.01,2013-08-18 02:03:00,
2013-08-17 21:04:00,64.2,44.1,30.05,East,83,0.0,0.0,48,0.00,,FEW100,0.00,VWS V14.01,2013-08-18 02:04:00,
2013-08-17 21:05:00,64.2,44.1,30.05,East,83,0.0,0.0,48,0.00,,FEW100,0.00,VWS V14.01,2013-08-18 02:05:00,
2013-08-17 21:06:00,64.2,44.1,30.05,East,83,0.0,0.0,48,0.00,,FEW100,0.00,VWS V14.01,2013-08-18 02:06:00,
2013-08-17 21:09:00,64.2,44.1,30.05,East,83,0.0,0.0,48,0.00,,FEW100,0.00,VWS V14.01,2013-08-18 02:09:00,
2013-08-17 21:10:00,64.2,44.1,30.05,East,83,0.0,0.0,48,0.00,,FEW100,0.00,VWS V14.01,2013-08-18 02:10:00,
2013-08-17 21:11:00,64.2,44.1,30.05,East,83,0.0,0.0,48,0.00,,FEW100,0.00,VWS V14.01,2013-08-18 02:11:00,
2013-08-17 21:12:00,64.2,44.1,30.08,East,83,0.0,0.0,48,0.00,,FEW100,0.00,VWS V14.01,2013-08-18 02:12:00,
2013-08-17 21:14:00,64.2,44.1,30.08,East,83,0.0,0.0,48,0.00,,FEW100,0.00,VWS V14.01,2013-08-18 02:14:00,
2013-08-17 21:15:00,64.2,44.1,30.08,East,83,0.0,0.0,48,0.00,,FEW100,0.00,VWS V14.01,2013-08-18 02:15:00,
2013-08-17 21:16:00,64.2,44.1,30.08,East,83,0.0,0.0,48,0.00,,FEW100,0.00,VWS V14.01,2013-08-18 02:16:00,
2013-08-17 21:20:00,64.2,44.1,30.08,East,83,0.0,0.0,48,0.00,,FEW100,0.00,VWS V14.01,2013-08-18 02:20:00,
2013-08-17 21:21:00,64.2,44.1,30.08,East,83,0.0,0.0,48,0.00,,FEW100,0.00,VWS V14.01,2013-08-18 02:21:00,
2013-08-17 21:22:00,64.0,44.0,30.08,East,83,0.0,0.0,48,0.00,,FEW100,0.00,VWS V14.01,2013-08-18 02:22:00,
2013-08-17 21:26:00,63.9,43.8,30.08,East,83,0.0,0.0,48,0.00,,FEW100,0.00,VWS V14.01,2013-08-18 02:26:00,
2013-08-17 21:27:00,63.9,43.8,30.08,East,83,0.0,0.0,48,0.00,,FEW100,0.00,VWS V14.01,2013-08-18 02:27:00,
2013-08-17 21:28:00,63.9,43.8,30.08,East,83,0.0,0.0,48,0.00,,FEW100,0.00,VWS V14.01,2013-08-18 02:28:00,
2013-08-17 21:31:00,63.9,43.8,30.08,East,83,0.0,0.0,48,0.00,,FEW100,0.00,VWS V14.01,2013-08-18 02:31:00,
2013-08-17 21:32:00,63.9,43.8,30.08,East,83,0.0,0.0,48,0.00,,FEW100,0.00,VWS V14.01,2013-08-18 02:32:00,
2013-08-17 21:33:00,63.9,43.8,30.08,East,83,0.0,0.0,48,0.00,,FEW100,0.00,VWS V14.01,2013-08-18 02:33:00,
2013-08-17 21:34:00,63.9,43.8,30.08,East,83,0.0,0.0,48,0.00,,FEW100,0.00,VWS V14.01,2013-08-18 02:34:00,
2013-08-17 21:36:00,64.0,44.0,30.08,East,83,0.0,0.0,48,0.00,,FEW100,0.00,VWS V14.01,2013-08-18 02:36:00,
2013-08-17 21:37:00,64.0,44.0,30.08,East,83,0.0,0.0,48,0.00,,FEW100,0.00,VWS V14.01,2013-08-18 02:37:00,
2013-08-17 21:39:00,64.0,44.0,30.08,East,83,0.0,0.0,48,0.00,,FEW100,0.00,VWS V14.01,2013-08-18 02:39:00,
2013-08-17 21:40:00,64.0,44.0,30.08,East,83,0.0,0.0,48,0.00,,FEW100,0.00,VWS V14.01,2013-08-18 02:40:00,
2013-08-17 21:42:00,64.0,44.0,30.08,East,83,0.0,0.0,48,0.00,,FEW100,0.00,VWS V14.01,2013-08-18 02:42:00,
2013-08-17 21:43:00,64.0,44.0,30.08,East,83,0.0,0.0,48,0.00,,FEW100,0.00,VWS V14.01,2013-08-18 02:43:00,
2013-08-17 21:44:00,64.0,44.0,30.08,East,83,0.0,0.0,48,0.00,,FEW100,0.00,VWS V14.01,2013-08-18 02:44:00,
2013-08-17 21:45:00,64.0,44.0,30.08,East,83,0.0,0.0,48,0.00,,FEW100,0.00,VWS V14.01,2013-08-18 02:45:00,
2013-08-17 21:47:00,64.0,44.0,30.08,East,83,0.0,0.0,48,0.00,,FEW100,0.00,VWS V14.01,2013-08-18 02:47:00,
2013-08-17 21:48:00,64.0,44.0,30.08,East,83,0.0,0.0,48,0.00,,FEW100,0.00,VWS V14.01,2013-08-18 02:48:00,
2013-08-17 21:50:00,64.0,44.0,30.08,East,83,0.0,0.0,48,0.00,,FEW100,0.00,VWS V14.01,2013-08-18 02:50:00,
2013-08-17 21:51:00,64.0,44.0,30.08,East,83,0.0,0.0,48,0.00,,FEW100,0.00,VWS V14.01,2013-08-18 02:51:00,
2013-08-17 21:52:00,64.0,44.0,30.08,East,83,0.0,0.0,48,0.00,,FEW100,0.00,VWS V14.01,2013-08-18 02:52:00,
2013-08-17 21:54:00,64.0,44.0,30.08,East,83,0.0,0.0,48,0.00,,FEW100,0.00,VWS V14.01,2013-08-18 02:54:00,
2013-08-17 21:56:00,63.9,43.8,30.08,East,83,0.0,0.0,48,0.00,,FEW100,0.00,VWS V14.01,2013-08-18 02:56:00,
2013-08-17 21:57:00,63.9,43.8,30.08,East,83,0.0,0.0,48,0.00,,FEW100,0.00,VWS V14.01,2013-08-18 02:57:00,
2013-08-17 21:58:00,63.9,43.8,30.08,East,83,0.0,0.0,48,0.00,,FEW100,0.00,VWS V14.01,2013-08-18 02:58:00,
2013-08-17 22:00:00,63.9,43.8,30.08,East,83,0.0,0.0,48,0.00,,FEW100,0.00,VWS V14.01,2013-08-18 03:00:00,
2013-08-17 22:02:00,63.9,43.8,30.08,East,83,0.0,0.0,48,0.00,,FEW100,0.00,VWS V14.01,2013-08-18 03:02:00,
2013-08-17 22:03:00,63.7,43.6,30.08,East,83,0.0,0.0,48,0.00,,FEW100,0.00,VWS V14.01,2013-08-18 03:03:00,
2013-08-17 22:04:00,63.7,43.6,30.08,East,83,0.0,0.0,48,0.00,,FEW100,0.00,VWS V14.01,2013-08-18 03:04:00,
2013-08-17 22:06:00,63.5,43.5,30.08,East,83,0.0,0.0,48,0.00,,FEW100,0.00,VWS V14.01,2013-08-18 03:06:00,
2013-08-17 22:08:00,63.3,43.3,30.08,East,83,0.0,0.0,48,0.00,,FEW100,0.00,VWS V14.01,2013-08-18 03:08:00,
2013-08-17 22:11:00,63.1,44.2,30.08,East,83,0.0,0.0,50,0.00,,FEW100,0.00,VWS V14.01,2013-08-18 03:11:00,
2013-08-17 22:12:00,63.1,44.2,30.08,East,83,0.0,0.0,50,0.00,,FEW100,0.00,VWS V14.01,2013-08-18 03:12:00,
2013-08-17 22:13:00,63.0,44.0,30.08,East,83,0.0,0.0,50,0.00,,FEW100,0.00,VWS V14.01,2013-08-18 03:13:00,
2013-08-17 22:14:00,62.8,43.9,30.08,East,83,0.0,0.0,50,0.00,,FEW100,0.00,VWS V14.01,2013-08-18 03:14:00,
2013-08-17 22:17:00,62.6,43.7,30.08,East,83,0.0,0.0,50,0.00,,FEW100,0.00,VWS V14.01,2013-08-18 03:17:00,
2013-08-17 22:19:00,62.6,44.8,30.08,East,83,2.2,3.1,52,0.00,,FEW100,0.00,VWS V14.01,2013-08-18 03:19:00,
2013-08-17 22:21:00,62.4,45.6,30.08,East,83,0.0,0.0,54,0.00,,FEW100,0.00,VWS V14.01,2013-08-18 03:21:00,
2013-08-17 22:22:00,62.4,45.6,30.08,East,83,0.0,0.0,54,0.00,,FEW100,0.00,VWS V14.01,2013-08-18 03:22:00,
2013-08-17 22:23:00,62.4,45.6,30.08,East,83,0.0,0.0,54,0.00,,FEW100,0.00,VWS V14.01,2013-08-18 03:23:00,
2013-08-17 22:25:00,62.4,46.5,30.08,East,83,0.0,0.0,56,0.00,,FEW100,0.00,VWS V14.01,2013-08-18 03:25:00,
2013-08-17 22:26:00,62.4,46.5,30.08,East,83,0.0,0.0,56,0.00,,FEW100,0.00,VWS V14.01,2013-08-18 03:26:00,
2013-08-17 22:27:00,62.2,46.4,30.08,East,83,0.0,0.0,56,0.00,,FEW100,0.00,VWS V14.01,2013-08-18 03:27:00,
2013-08-17 22:28:00,62.2,46.4,30.08,East,83,0.0,0.0,56,0.00,,FEW100,0.00,VWS V14.01,2013-08-18 03:28:00,
2013-08-17 22:31:00,62.2,46.4,30.08,East,83,0.0,0.0,56,0.00,,FEW100,0.00,VWS V14.01,2013-08-18 03:31:00,
2013-08-17 22:33:00,62.2,46.4,30.08,East,83,0.0,0.0,56,0.00,,FEW100,0.00,VWS V14.01,2013-08-18 03:33:00,
2013-08-17 22:34:00,62.2,46.4,30.08,East,83,0.0,0.0,56,0.00,,FEW100,0.00,VWS V14.01,2013-08-18 03:34:00,
2013-08-17 22:36:00,62.2,46.4,30.08,East,83,0.0,0.0,56,0.00,,FEW100,0.00,VWS V14.01,2013-08-18 03:36:00,
2013-08-17 22:39:00,62.1,46.2,30.08,East,83,0.0,0.0,56,0.00,,FEW100,0.00,VWS V14.01,2013-08-18 03:39:00,
2013-08-17 22:40:00,62.1,46.2,30.08,East,83,0.0,0.0,56,0.00,,FEW100,0.00,VWS V14.01,2013-08-18 03:40:00,
2013-08-17 22:41:00,62.1,46.2,30.08,East,83,0.0,0.0,56,0.00,,FEW100,0.00,VWS V14.01,2013-08-18 03:41:00,
2013-08-17 22:42:00,62.1,46.2,30.08,East,83,0.0,0.0,56,0.00,,FEW100,0.00,VWS V14.01,2013-08-18 03:42:00,
2013-08-17 22:45:00,62.1,46.2,30.08,East,83,0.0,0.0,56,0.00,,FEW100,0.00,VWS V14.01,2013-08-18 03:45:00,
2013-08-17 22:47:00,61.9,46.0,30.08,East,83,0.0,0.0,56,0.00,,FEW100,0.00,VWS V14.01,2013-08-18 03:47:00,
2013-08-17 22:48:00,61.9,46.0,30.08,East,83,0.0,0.0,56,0.00,,FEW100,0.00,VWS V14.01,2013-08-18 03:48:00,
2013-08-17 22:50:00,61.7,45.9,30.08,East,83,0.0,0.0,56,0.00,,FEW100,0.00,VWS V14.01,2013-08-18 03:50:00,
2013-08-17 22:51:00,61.7,46.8,30.08,East,83,0.0,0.0,58,0.00,,FEW100,0.00,VWS V14.01,2013-08-18 03:51:00,
2013-08-17 22:53:00,61.5,46.6,30.08,East,83,0.0,0.0,58,0.00,,FEW100,0.00,VWS V14.01,2013-08-18 03:53:00,
2013-08-17 22:54:00,61.5,46.6,30.08,East,83,0.0,0.0,58,0.00,,FEW100,0.00,VWS V14.01,2013-08-18 03:54:00,
2013-08-17 22:55:00,61.3,46.5,30.08,East,83,0.0,0.0,58,0.00,,FEW100,0.00,VWS V14.01,2013-08-18 03:55:00,
2013-08-17 22:56:00,61.3,46.5,30.08,East,83,0.0,0.0,58,0.00,,FEW100,0.00,VWS V14.01,2013-08-18 03:56:00,
2013-08-17 22:58:00,61.3,46.5,30.05,East,83,0.0,0.0,58,0.00,,FEW100,0.00,VWS V14.01,2013-08-18 03:58:00,
2013-08-17 22:59:00,61.3,46.5,30.05,East,83,0.0,0.0,58,0.00,,FEW100,0.00,VWS V14.01,2013-08-18 03:59:00,
2013-08-17 23:00:00,61.3,47.3,30.05,East,83,0.0,0.0,60,0.00,,FEW100,0.00,VWS V14.01,2013-08-18 04:00:00,
2013-08-17 23:01:00,61.2,47.2,30.05,East,83,0.0,0.0,60,0.00,,FEW100,0.00,VWS V14.01,2013-08-18 04:01:00,
2013-08-17 23:06:00,61.2,47.2,30.05,East,83,0.0,0.0,60,0.00,,FEW100,0.00,VWS V14.01,2013-08-18 04:06:00,
2013-08-17 23:07:00,61.2,47.2,30.05,East,83,0.0,0.0,60,0.00,,FEW100,0.00,VWS V14.01,2013-08-18 04:07:00,
2013-08-17 23:09:00,61.0,47.9,30.05,East,83,0.0,0.0,62,0.00,,FEW100,0.00,VWS V14.01,2013-08-18 04:09:00,
2013-08-17 23:11:00,61.0,47.9,30.05,East,83,0.0,0.0,62,0.00,,FEW100,0.00,VWS V14.01,2013-08-18 04:11:00,
2013-08-17 23:12:00,61.0,47.9,30.05,East,83,0.0,0.0,62,0.00,,FEW100,0.00,VWS V14.01,2013-08-18 04:12:00,
2013-08-17 23:14:00,61.2,48.9,30.05,East,83,0.0,0.0,64,0.00,,FEW100,0.00,VWS V14.01,2013-08-18 04:14:00,
2013-08-17 23:17:00,61.2,48.9,30.05,East,83,0.0,0.0,64,0.00,,FEW100,0.00,VWS V14.01,2013-08-18 04:17:00,
2013-08-17 23:19:00,61.2,48.9,30.05,East,83,0.0,0.0,64,0.00,,FEW100,0.00,VWS V14.01,2013-08-18 04:19:00,
2013-08-17 23:22:00,61.3,49.9,30.05,East,83,0.0,0.0,66,0.00,,FEW100,0.00,VWS V14.01,2013-08-18 04:22:00,
2013-08-17 23:23:00,61.3,49.9,30.05,East,83,0.0,0.0,66,0.00,,FEW100,0.00,VWS V14.01,2013-08-18 04:23:00,
2013-08-17 23:24:00,61.3,49.1,30.05,East,83,0.0,0.0,64,0.00,,FEW100,0.00,VWS V14.01,2013-08-18 04:24:00,
2013-08-17 23:25:00,61.3,49.1,30.05,East,83,0.0,0.0,64,0.00,,FEW100,0.00,VWS V14.01,2013-08-18 04:25:00,
2013-08-17 23:27:00,61.2,48.0,30.05,East,83,0.0,0.0,62,0.00,,FEW100,0.00,VWS V14.01,2013-08-18 04:27:00,
2013-08-17 23:29:00,61.0,47.9,30.05,East,83,0.0,0.0,62,0.00,,FEW100,0.00,VWS V14.01,2013-08-18 04:29:00,
2013-08-17 23:32:00,60.6,48.4,30.05,East,83,0.0,0.0,64,0.00,,FEW100,0.00,VWS V14.01,2013-08-18 04:32:00,
2013-08-17 23:34:00,60.4,47.4,30.05,East,83,0.0,0.0,62,0.00,,FEW100,0.00,VWS V14.01,2013-08-18 04:34:00,
2013-08-17 23:35:00,60.1,47.9,30.05,East,83,0.0,0.0,64,0.00,,FEW100,0.00,VWS V14.01,2013-08-18 04:35:00,
2013-08-17 23:36:00,60.1,47.9,30.05,East,83,0.0,0.0,64,0.00,,FEW100,0.00,VWS V14.01,2013-08-18 04:36:00,
2013-08-17 23:38:00,59.9,47.7,30.05,East,83,0.0,0.0,64,0.00,,FEW100,0.00,VWS V14.01,2013-08-18 04:38:00,
2013-08-17 23:39:00,59.7,47.5,30.05,East,83,0.0,0.0,64,0.00,,FEW100,0.00,VWS V14.01,2013-08-18 04:39:00,
2013-08-17 23:40:00,59.7,47.5,30.05,East,83,0.0,0.0,64,0.00,,FEW100,0.00,VWS V14.01,2013-08-18 04:40:00,
2013-08-17 23:41:00,59.7,47.5,30.05,East,83,0.0,0.0,64,0.00,,FEW100,0.00,VWS V14.01,2013-08-18 04:41:00,
2013-08-17 23:43:00,59.5,48.2,30.08,East,83,0.0,0.0,66,0.00,,FEW100,0.00,VWS V14.01,2013-08-18 04:43:00,
2013-08-17 23:45:00,59.5,48.2,30.08,East,83,0.0,0.0,66,0.00,,FEW100,0.00,VWS V14.01,2013-08-18 04:45:00,
2013-08-17 23:46:00,59.5,49.0,30.08,East,83,0.0,0.0,68,0.00,,FEW100,0.00,VWS V14.01,2013-08-18 04:46:00,
2013-08-17 23:47:00,59.5,49.0,30.08,East,83,0.0,0.0,68,0.00,,FEW100,0.00,VWS V14.01,2013-08-18 04:47:00,
2013-08-17 23:50:00,59.7,49.2,30.08,East,83,0.0,0.0,68,0.00,,FEW100,0.00,VWS V14.01,2013-08-18 04:50:00,
2013-08-17 23:51:00,59.7,49.2,30.08,East,83,0.0,0.0,68,0.00,,FEW100,0.00,VWS V14.01,2013-08-18 04:51:00,
2013-08-17 23:52:00,59.7,49.2,30.08,East,83,0.0,0.0,68,0.00,,FEW100,0.00,VWS V14.01,2013-08-18 04:52:00,
2013-08-17 23:55:00,59.9,50.1,30.08,East,83,0.0,0.0,70,0.00,,FEW100,0.00,VWS V14.01,2013-08-18 04:55:00,
2013-08-17 23:56:00,60.1,50.3,30.08,East,83,0.0,0.0,70,0.00,,FEW100,0.00,VWS V14.01,2013-08-18 04:56:00,
2013-08-17 23:57:00,60.1,50.3,30.08,East,83,0.0,0.0,70,0.00,,FEW100,0.00,VWS V14.01,2013-08-18 04:57:00,
2013-08-17 23:58:00,60.1,50.3,30.05,East,83,0.0,0.0,70,0.00,,FEW100,0.00,VWS V14.01,2013-08-18 04:58:00,